Wetterdaten: Sonntag, 02.12.2018
Datum Zeit Temp. Aussen Temp. o. S. +5cm Feuchte Auss Luftdruck Regen Sonnenschein Regendauer Solar Windben Empfang
02.12.2018 00:00 9,1 C 8,3 C 7,8 C 91 % 1002,9 hPa 0,0 l/m 0 min 0 min 0 W/m 16,1 km/h (3 Bft) 97,87 %
02.12.2018 00:02 9,2 C 8,3 C 7,8 C 90 % 1002,9 hPa 0,0 l/m 0 min 0 min 0 W/m 12,9 km/h (3 Bft) 97,56 %
02.12.2018 00:04 9,2 C 8,3 C 7,8 C 91 % 1002,9 hPa 0,0 l/m 0 min 0 min 0 W/m 12,9 km/h (3 Bft) 97,87 %
02.12.2018 00:08 9,2 C 8,3 C 7,8 C 90 % 1002,8 hPa 0,0 l/m 0 min 0 min 0 W/m 12,9 km/h (3 Bft) 98,92 %
02.12.2018 00:10 9,2 C 8,3 C 7,8 C 90 % 1002,8 hPa 0,0 l/m 0 min 0 min 0 W/m 16,1 km/h (3 Bft) 97,87 %
02.12.2018 00:12 9,2 C 8,3 C 7,8 C 90 % 1002,7 hPa 0,0 l/m 0 min 0 min 0 W/m 12,9 km/h (3 Bft) 100,00 %
02.12.2018 00:14 9,2 C 8,3 C 8,3 C 90 % 1002,8 hPa 0,0 l/m 0 min 0 min 0 W/m 9,7 km/h (2 Bft) 100,00 %
02.12.2018 00:16 9,3 C 8,3 C 7,8 C 90 % 1002,8 hPa 0,0 l/m 0 min 0 min 0 W/m 12,9 km/h (3 Bft) 97,83 %
02.12.2018 00:18 9,3 C 8,3 C 7,8 C 90 % 1002,8 hPa 0,0 l/m 0 min 0 min 0 W/m 16,1 km/h (3 Bft) 97,87 %
02.12.2018 00:20 9,3 C 8,3 C 7,8 C 90 % 1002,7 hPa 0,0 l/m 0 min 0 min 0 W/m 12,9 km/h (3 Bft) 95,74 %
02.12.2018 00:22 9,3 C 8,3 C 7,8 C 90 % 1002,6 hPa 0,0 l/m 0 min 0 min 0 W/m 16,1 km/h (3 Bft) 100,00 %
02.12.2018 00:24 9,3 C 8,3 C 8,3 C 90 % 1002,6 hPa 0,0 l/m 0 min 0 min 0 W/m 12,9 km/h (3 Bft) 100,00 %
02.12.2018 00:26 9,3 C 8,3 C 7,8 C 90 % 1002,6 hPa 0,0 l/m 0 min 0 min 0 W/m 9,7 km/h (2 Bft) 97,87 %
02.12.2018 00:28 9,3 C 8,3 C 7,8 C 90 % 1002,7 hPa 0,0 l/m 0 min 0 min 0 W/m 19,3 km/h (3 Bft) 100,00 %
02.12.2018 00:30 9,3 C 8,9 C 7,8 C 90 % 1002,6 hPa 0,0 l/m 0 min 0 min 0 W/m 12,9 km/h (3 Bft) 100,00 %
02.12.2018 00:32 9,3 C 8,9 C 7,8 C 90 % 1002,6 hPa 0,0 l/m 0 min 0 min 0 W/m 12,9 km/h (3 Bft) 100,00 %
02.12.2018 00:34 9,4 C 8,9 C 7,8 C 90 % 1002,5 hPa 0,0 l/m 0 min 0 min 0 W/m 16,1 km/h (3 Bft) 100,00 %
02.12.2018 00:36 9,4 C 8,9 C 7,8 C 90 % 1002,5 hPa 0,0 l/m 0 min 0 min 0 W/m 12,9 km/h (3 Bft) 100,00 %
02.12.2018 00:38 9,4 C 8,9 C 8,3 C 90 % 1002,5 hPa 0,0 l/m 0 min 0 min 0 W/m 9,7 km/h (2 Bft) 97,87 %
02.12.2018 00:40 9,4 C 8,9 C 8,3 C 89 % 1002,5 hPa 0,0 l/m 0 min 0 min 0 W/m 12,9 km/h (3 Bft) 100,00 %
02.12.2018 00:42 9,4 C 8,9 C 8,3 C 89 % 1002,5 hPa 0,0 l/m 0 min 0 min 0 W/m 16,1 km/h (3 Bft) 100,00 %
02.12.2018 00:44 9,4 C 8,9 C 8,3 C 89 % 1002,4 hPa 0,0 l/m 0 min 0 min 0 W/m 16,1 km/h (3 Bft) 100,00 %
02.12.2018 00:46 9,4 C 8,9 C 8,3 C 89 % 1002,5 hPa 0,0 l/m 0 min 0 min 0 W/m 6,4 km/h (2 Bft) 100,00 %
02.12.2018 00:48 9,4 C 9,4 C 8,3 C 89 % 1002,5 hPa 0,0 l/m 0 min 0 min 0 W/m 16,1 km/h (3 Bft) 100,00 %
02.12.2018 00:50 9,5 C 8,9 C 8,3 C 89 % 1002,5 hPa 0,0 l/m 0 min 0 min 0 W/m 12,9 km/h (3 Bft) 100,00 %
02.12.2018 00:52 9,4 C 9,4 C 8,3 C 89 % 1002,5 hPa 0,0 l/m 0 min 0 min 0 W/m 12,9 km/h (3 Bft) 97,83 %
02.12.2018 00:54 9,5 C 8,9 C 8,3 C 89 % 1002,5 hPa 0,0 l/m 0 min 0 min 0 W/m 12,9 km/h (3 Bft) 100,00 %
02.12.2018 00:56 9,5 C 9,4 C 8,3 C 89 % 1002,3 hPa 0,0 l/m 0 min 0 min 0 W/m 12,9 km/h (3 Bft) 100,00 %
02.12.2018 00:58 9,5 C 9,4 C 8,3 C 89 % 1002,4 hPa 0,0 l/m 0 min 0 min 0 W/m 9,7 km/h (2 Bft) 100,00 %
02.12.2018 01:00 9,5 C 9,4 C 8,3 C 89 % 1002,3 hPa 0,0 l/m 0 min 0 min 0 W/m 12,9 km/h (3 Bft) 97,87 %
02.12.2018 01:02 9,5 C 9,4 C 8,3 C 89 % 1002,2 hPa 0,0 l/m 0 min 0 min 0 W/m 16,1 km/h (3 Bft) 97,87 %
02.12.2018 01:04 9,6 C 9,4 C 8,3 C 89 % 1002,3 hPa 0,0 l/m 0 min 0 min 0 W/m 16,1 km/h (3 Bft) 100,00 %
02.12.2018 01:06 9,6 C 9,4 C 8,3 C 89 % 1002,3 hPa 0,0 l/m 0 min 0 min 0 W/m 12,9 km/h (3 Bft) 100,00 %
02.12.2018 01:08 9,6 C 9,4 C 8,3 C 89 % 1002,3 hPa 0,0 l/m 0 min 0 min 0 W/m 9,7 km/h (2 Bft) 95,74 %
02.12.2018 01:10 9,6 C 8,9 C 8,3 C 89 % 1002,3 hPa 0,0 l/m 0 min 0 min 0 W/m 16,1 km/h (3 Bft) 97,87 %
02.12.2018 01:12 9,6 C 9,4 C 8,3 C 89 % 1002,3 hPa 0,0 l/m 0 min 0 min 0 W/m 16,1 km/h (3 Bft) 97,87 %
02.12.2018 01:14 9,6 C 8,9 C 8,3 C 89 % 1002,2 hPa 0,0 l/m 0 min 0 min 0 W/m 9,7 km/h (2 Bft) 100,00 %
02.12.2018 01:16 9,6 C 8,9 C 8,3 C 89 % 1002,2 hPa 0,0 l/m 0 min 0 min 0 W/m 12,9 km/h (3 Bft) 100,00 %
02.12.2018 01:18 9,6 C 8,9 C 8,3 C 89 % 1002,1 hPa 0,0 l/m 0 min 0 min 0 W/m 16,1 km/h (3 Bft) 95,74 %
02.12.2018 01:20 9,6 C 8,9 C 8,3 C 89 % 1002,1 hPa 0,0 l/m 0 min 0 min 0 W/m 12,9 km/h (3 Bft) 100,00 %
02.12.2018 01:22 9,6 C 8,9 C 8,3 C 89 % 1002,1 hPa 0,0 l/m 0 min 0 min 0 W/m 12,9 km/h (3 Bft) 95,74 %
02.12.2018 01:24 9,6 C 8,9 C 8,3 C 89 % 1002,0 hPa 0,0 l/m 0 min 0 min 0 W/m 12,9 km/h (3 Bft) 97,87 %
02.12.2018 01:26 9,6 C 8,9 C 8,3 C 89 % 1002,0 hPa 0,0 l/m 0 min 0 min 0 W/m 9,7 km/h (2 Bft) 95,74 %
02.12.2018 01:28 9,6 C 8,9 C 8,3 C 89 % 1002,0 hPa 0,0 l/m 0 min 0 min 0 W/m 22,5 km/h (4 Bft) 97,83 %
02.12.2018 01:30 9,6 C 8,9 C 8,3 C 89 % 1001,9 hPa 0,0 l/m 0 min 0 min 0 W/m 16,1 km/h (3 Bft) 97,87 %
02.12.2018 01:32 9,6 C 8,9 C 8,3 C 89 % 1001,9 hPa 0,0 l/m 0 min 0 min 0 W/m 12,9 km/h (3 Bft) 98,00 %
02.12.2018 01:34 9,6 C 8,9 C 8,3 C 89 % 1001,9 hPa 0,0 l/m 0 min 0 min 0 W/m 16,1 km/h (3 Bft) 95,74 %
02.12.2018 01:36 9,6 C 8,9 C 8,3 C 89 % 1001,9 hPa 0,0 l/m 0 min 0 min 0 W/m 9,7 km/h (2 Bft) 97,87 %
02.12.2018 01:38 9,6 C 8,9 C 8,3 C 89 % 1001,8 hPa 0,0 l/m 0 min 2 min 0 W/m 16,1 km/h (3 Bft) 97,83 %
02.12.2018 01:40 9,6 C 8,9 C 8,3 C 89 % 1001,8 hPa 0,0 l/m 0 min 0 min 0 W/m 12,9 km/h (3 Bft) 97,87 %
02.12.2018 01:42 9,6 C 8,9 C 8,3 C 89 % 1001,7 hPa 0,0 l/m 0 min 0 min 0 W/m 12,9 km/h (3 Bft) 95,74 %
02.12.2018 01:44 9,6 C 8,9 C 8,3 C 89 % 1001,6 hPa 0,0 l/m 0 min 0 min 0 W/m 16,1 km/h (3 Bft) 95,74 %
02.12.2018 01:46 9,6 C 8,9 C 8,3 C 89 % 1001,6 hPa 0,0 l/m 0 min 0 min 0 W/m 9,7 km/h (2 Bft) 95,74 %
02.12.2018 01:48 9,6 C 8,9 C 8,3 C 89 % 1001,6 hPa 0,0 l/m 0 min 0 min 0 W/m 12,9 km/h (3 Bft) 97,87 %
02.12.2018 01:50 9,6 C 8,9 C 8,3 C 89 % 1001,6 hPa 0,0 l/m 0 min 0 min 0 W/m 12,9 km/h (3 Bft) 97,83 %
02.12.2018 01:52 9,6 C 8,9 C 8,3 C 89 % 1001,6 hPa 0,0 l/m 0 min 0 min 0 W/m 12,9 km/h (3 Bft) 93,62 %
02.12.2018 01:54 9,6 C 8,9 C 8,3 C 89 % 1001,6 hPa 0,0 l/m 0 min 0 min 0 W/m 22,5 km/h (4 Bft) 95,74 %
02.12.2018 01:56 9,6 C 8,9 C 8,3 C 89 % 1001,5 hPa 0,0 l/m 0 min 0 min 0 W/m 22,5 km/h (4 Bft) 95,74 %
02.12.2018 01:58 9,6 C 8,9 C 8,3 C 89 % 1001,5 hPa 0,0 l/m 0 min 0 min 0 W/m 12,9 km/h (3 Bft) 97,87 %
02.12.2018 02:00 9,6 C 8,9 C 8,3 C 89 % 1001,5 hPa 0,0 l/m 0 min 0 min 0 W/m 12,9 km/h (3 Bft) 95,74 %
02.12.2018 02:02 9,6 C 8,9 C 8,3 C 89 % 1001,4 hPa 0,0 l/m 0 min 0 min 0 W/m 12,9 km/h (3 Bft) 95,65 %
02.12.2018 02:04 9,6 C 8,9 C 8,3 C 89 % 1001,4 hPa 0,0 l/m 0 min 0 min 0 W/m 16,1 km/h (3 Bft) 95,74 %
02.12.2018 02:06 9,6 C 8,9 C 8,3 C 89 % 1001,3 hPa 0,0 l/m 0 min 0 min 0 W/m 16,1 km/h (3 Bft) 93,62 %
02.12.2018 02:08 9,6 C 8,9 C 8,3 C 89 % 1001,3 hPa 0,0 l/m 0 min 0 min 0 W/m 19,3 km/h (3 Bft) 95,74 %
02.12.2018 02:10 9,6 C 8,9 C 8,3 C 89 % 1001,2 hPa 0,0 l/m 0 min 0 min 0 W/m 16,1 km/h (3 Bft) 93,62 %
02.12.2018 02:12 9,6 C 8,9 C 8,3 C 89 % 1001,2 hPa 0,0 l/m 0 min 0 min 0 W/m 9,7 km/h (2 Bft) 95,65 %
02.12.2018 02:14 9,6 C 8,9 C 8,3 C 89 % 1001,2 hPa 0,0 l/m 0 min 0 min 0 W/m 12,9 km/h (3 Bft) 97,87 %
02.12.2018 02:16 9,6 C 8,9 C 8,3 C 89 % 1001,2 hPa 0,0 l/m 0 min 0 min 0 W/m 12,9 km/h (3 Bft) 97,87 %
02.12.2018 02:18 9,6 C 8,9 C 8,3 C 89 % 1001,2 hPa 0,0 l/m 0 min 0 min 0 W/m 16,1 km/h (3 Bft) 97,87 %
02.12.2018 02:20 9,6 C 8,9 C 8,3 C 89 % 1001,2 hPa 0,0 l/m 0 min 0 min 0 W/m 22,5 km/h (4 Bft) 95,74 %
02.12.2018 02:22 9,6 C 8,9 C 8,3 C 89 % 1001,2 hPa 0,0 l/m 0 min 0 min 0 W/m 16,1 km/h (3 Bft) 97,87 %
02.12.2018 02:24 9,6 C 8,9 C 8,3 C 89 % 1001,1 hPa 0,0 l/m 0 min 0 min 0 W/m 22,5 km/h (4 Bft) 93,48 %
02.12.2018 02:26 9,6 C 8,9 C 8,3 C 89 % 1001,2 hPa 0,0 l/m 0 min 0 min 0 W/m 16,1 km/h (3 Bft) 91,49 %
02.12.2018 02:28 9,6 C 8,9 C 8,3 C 89 % 1001,2 hPa 0,0 l/m 0 min 0 min 0 W/m 16,1 km/h (3 Bft) 95,74 %
02.12.2018 02:30 9,6 C 8,9 C 8,3 C 89 % 1001,2 hPa 0,0 l/m 0 min 0 min 0 W/m 16,1 km/h (3 Bft) 95,74 %
02.12.2018 02:32 9,6 C 8,9 C 8,3 C 89 % 1001,0 hPa 0,0 l/m 0 min 0 min 0 W/m 16,1 km/h (3 Bft) 95,74 %
02.12.2018 02:34 9,6 C 8,9 C 8,3 C 89 % 1001,0 hPa 0,0 l/m 0 min 0 min 0 W/m 12,9 km/h (3 Bft) 95,74 %
02.12.2018 02:36 9,6 C 8,9 C 8,3 C 89 % 1001,0 hPa 0,0 l/m 0 min 0 min 0 W/m 12,9 km/h (3 Bft) 97,83 %
02.12.2018 02:38 9,6 C 8,9 C 8,3 C 89 % 1001,1 hPa 0,0 l/m 0 min 0 min 0 W/m 12,9 km/h (3 Bft) 97,87 %
02.12.2018 02:40 9,6 C 8,9 C 8,3 C 89 % 1000,9 hPa 0,0 l/m 0 min 0 min 0 W/m 16,1 km/h (3 Bft) 97,87 %
02.12.2018 02:42 9,6 C 8,9 C 8,3 C 89 % 1000,9 hPa 0,0 l/m 0 min 0 min 0 W/m 12,9 km/h (3 Bft) 97,87 %
02.12.2018 02:44 9,6 C 8,9 C 8,3 C 89 % 1000,9 hPa 0,0 l/m 0 min 0 min 0 W/m 16,1 km/h (3 Bft) 97,87 %
02.12.2018 02:46 9,6 C 9,4 C 8,3 C 89 % 1000,8 hPa 0,0 l/m 0 min 0 min 0 W/m 25,7 km/h (4 Bft) 97,87 %
02.12.2018 02:48 9,6 C 9,4 C 8,3 C 89 % 1000,7 hPa 0,0 l/m 0 min 0 min 0 W/m 12,9 km/h (3 Bft) 97,83 %
02.12.2018 02:50 9,6 C 9,4 C 8,3 C 90 % 1000,7 hPa 0,0 l/m 0 min 0 min 0 W/m 16,1 km/h (3 Bft) 97,87 %
02.12.2018 02:52 9,6 C 9,4 C 8,3 C 90 % 1000,7 hPa 0,0 l/m 0 min 0 min 0 W/m 22,5 km/h (4 Bft) 97,87 %
02.12.2018 02:54 9,6 C 9,4 C 8,3 C 90 % 1000,7 hPa 0,0 l/m 0 min 0 min 0 W/m 19,3 km/h (3 Bft) 97,87 %
02.12.2018 02:56 9,7 C 9,4 C 8,3 C 90 % 1000,7 hPa 0,0 l/m 0 min 0 min 0 W/m 19,3 km/h (3 Bft) 97,87 %
02.12.2018 02:58 9,7 C 9,4 C 8,3 C 90 % 1000,6 hPa 0,0 l/m 0 min 0 min 0 W/m 16,1 km/h (3 Bft) 97,87 %
02.12.2018 03:00 9,7 C 9,4 C 8,3 C 90 % 1000,6 hPa 0,0 l/m 0 min 0 min 0 W/m 16,1 km/h (3 Bft) 97,83 %
02.12.2018 03:02 9,7 C 9,4 C 8,3 C 90 % 1000,5 hPa 0,0 l/m 0 min 0 min 0 W/m 12,9 km/h (3 Bft) 97,87 %
02.12.2018 03:04 9,7 C 9,4 C 8,3 C 90 % 1000,5 hPa 0,0 l/m 0 min 0 min 0 W/m 16,1 km/h (3 Bft) 97,87 %
02.12.2018 03:06 9,7 C 9,4 C 8,3 C 90 % 1000,5 hPa 0,0 l/m 0 min 0 min 0 W/m 19,3 km/h (3 Bft) 95,74 %
02.12.2018 03:08 9,7 C 9,4 C 8,3 C 90 % 1000,4 hPa 0,0 l/m 0 min 0 min 0 W/m 16,1 km/h (3 Bft) 97,87 %
02.12.2018 03:10 9,7 C 9,4 C 8,3 C 90 % 1000,4 hPa 0,0 l/m 0 min 0 min 0 W/m 16,1 km/h (3 Bft) 97,87 %
02.12.2018 03:12 9,7 C 9,4 C 8,3 C 90 % 1000,4 hPa 0,0 l/m 0 min 0 min 0 W/m 22,5 km/h (4 Bft) 97,83 %
02.12.2018 03:14 9,7 C 8,9 C 8,3 C 90 % 1000,4 hPa 0,0 l/m 0 min 0 min 0 W/m 22,5 km/h (4 Bft) 97,87 %
02.12.2018 03:16 9,7 C 8,9 C 8,3 C 90 % 1000,4 hPa 0,0 l/m 0 min 0 min 0 W/m 9,7 km/h (2 Bft) 97,87 %
02.12.2018 03:18 9,7 C 8,9 C 8,3 C 90 % 1000,4 hPa 0,0 l/m 0 min 0 min 0 W/m 9,7 km/h (2 Bft) 97,87 %
02.12.2018 03:20 9,7 C 8,9 C 8,3 C 90 % 1000,3 hPa 0,0 l/m 0 min 0 min 0 W/m 16,1 km/h (3 Bft) 97,87 %
02.12.2018 03:22 9,7 C 8,9 C 8,3 C 90 % 1000,3 hPa 0,0 l/m 0 min 0 min 0 W/m 16,1 km/h (3 Bft) 97,87 %
02.12.2018 03:24 9,7 C 8,9 C 8,3 C 90 % 1000,3 hPa 0,0 l/m 0 min 0 min 0 W/m 16,1 km/h (3 Bft) 97,83 %
02.12.2018 03:26 9,7 C 8,9 C 8,3 C 90 % 1000,3 hPa 0,0 l/m 0 min 0 min 0 W/m 22,5 km/h (4 Bft) 100,00 %
02.12.2018 03:28 9,7 C 8,9 C 8,3 C 90 % 1000,2 hPa 0,0 l/m 0 min 0 min 0 W/m 22,5 km/h (4 Bft) 100,00 %
02.12.2018 03:30 9,7 C 8,9 C 8,3 C 90 % 1000,3 hPa 0,0 l/m 0 min 0 min 0 W/m 12,9 km/h (3 Bft) 100,00 %
02.12.2018 03:32 9,7 C 8,9 C 8,3 C 90 % 1000,3 hPa 0,0 l/m 0 min 0 min 0 W/m 16,1 km/h (3 Bft) 100,00 %
02.12.2018 03:34 9,7 C 8,3 C 8,3 C 91 % 1000,3 hPa 0,0 l/m 0 min 0 min 0 W/m 19,3 km/h (3 Bft) 97,83 %
02.12.2018 03:36 9,7 C 8,3 C 7,8 C 91 % 1000,2 hPa 0,0 l/m 0 min 0 min 0 W/m 19,3 km/h (3 Bft) 100,00 %
02.12.2018 03:38 9,7 C 8,3 C 7,8 C 91 % 1000,2 hPa 0,0 l/m 0 min 2 min 0 W/m 12,9 km/h (3 Bft) 100,00 %
02.12.2018 03:40 9,7 C 7,8 C 7,8 C 91 % 1000,2 hPa 0,0 l/m 0 min 2 min 0 W/m 16,1 km/h (3 Bft) 100,00 %
02.12.2018 03:42 9,7 C 7,8 C 7,8 C 91 % 1000,2 hPa 0,0 l/m 0 min 2 min 0 W/m 12,9 km/h (3 Bft) 100,00 %
02.12.2018 03:44 9,7 C 7,8 C 7,8 C 91 % 1000,1 hPa 0,2 l/m 0 min 2 min 0 W/m 16,1 km/h (3 Bft) 100,00 %
02.12.2018 03:46 9,6 C 7,8 C 7,8 C 92 % 1000,1 hPa 0,0 l/m 0 min 2 min 0 W/m 12,9 km/h (3 Bft) 100,00 %
02.12.2018 03:48 9,6 C 7,8 C 7,8 C 92 % 1000,1 hPa 0,0 l/m 0 min 2 min 0 W/m 12,9 km/h (3 Bft) 100,00 %
02.12.2018 03:50 9,6 C 7,8 C 7,8 C 92 % 1000,1 hPa 0,0 l/m 0 min 2 min 0 W/m 25,7 km/h (4 Bft) 100,00 %
02.12.2018 03:52 9,6 C 7,8 C 7,8 C 92 % 1000,0 hPa 0,2 l/m 0 min 2 min 0 W/m 12,9 km/h (3 Bft) 93,62 %
02.12.2018 03:54 9,5 C 7,8 C 7,8 C 93 % 1000,0 hPa 0,0 l/m 0 min 2 min 0 W/m 16,1 km/h (3 Bft) 100,00 %
02.12.2018 03:56 9,5 C 7,8 C 7,8 C 93 % 1000,0 hPa 0,0 l/m 0 min 2 min 0 W/m 12,9 km/h (3 Bft) 100,00 %
02.12.2018 03:58 9,4 C 7,8 C 7,8 C 93 % 1000,0 hPa 0,2 l/m 0 min 2 min 0 W/m 16,1 km/h (3 Bft) 100,00 %
02.12.2018 04:00 9,4 C 7,8 C 7,8 C 93 % 1000,0 hPa 0,2 l/m 0 min 2 min 0 W/m 12,9 km/h (3 Bft) 100,00 %
02.12.2018 04:02 9,4 C 7,8 C 7,8 C 93 % 1000,0 hPa 0,2 l/m 0 min 2 min 0 W/m 9,7 km/h (2 Bft) 100,00 %
02.12.2018 04:04 9,4 C 7,8 C 7,8 C 94 % 1000,0 hPa 0,2 l/m 0 min 2 min 0 W/m 19,3 km/h (3 Bft) 95,74 %
02.12.2018 04:06 9,4 C 7,8 C 7,8 C 93 % 999,8 hPa 0,0 l/m 0 min 2 min 0 W/m 12,9 km/h (3 Bft) 98,31 %
02.12.2018 04:08 9,4 C 7,8 C 7,8 C 94 % 999,8 hPa 0,0 l/m 0 min 2 min 0 W/m 12,9 km/h (3 Bft) 100,00 %
02.12.2018 04:10 9,3 C 7,8 C 7,8 C 94 % 999,8 hPa 0,2 l/m 0 min 2 min 0 W/m 9,7 km/h (2 Bft) 100,00 %
02.12.2018 04:12 9,3 C 7,8 C 7,8 C 94 % 999,8 hPa 0,2 l/m 0 min 2 min 0 W/m 12,9 km/h (3 Bft) 97,87 %
02.12.2018 04:14 9,3 C 7,8 C 7,8 C 94 % 999,8 hPa 0,2 l/m 0 min 2 min 0 W/m 16,1 km/h (3 Bft) 97,83 %
02.12.2018 04:16 9,3 C 7,8 C 7,2 C 94 % 999,7 hPa 0,2 l/m 0 min 2 min 0 W/m 16,1 km/h (3 Bft) 97,87 %
02.12.2018 04:18 9,3 C 7,8 C 7,2 C 94 % 999,7 hPa 0,0 l/m 0 min 2 min 0 W/m 16,1 km/h (3 Bft) 97,87 %
02.12.2018 04:20 9,2 C 7,8 C 7,2 C 94 % 999,6 hPa 0,0 l/m 0 min 2 min 0 W/m 19,3 km/h (3 Bft) 100,00 %
02.12.2018 04:22 9,2 C 7,8 C 7,2 C 95 % 999,6 hPa 0,0 l/m 0 min 2 min 0 W/m 16,1 km/h (3 Bft) 100,00 %
02.12.2018 04:24 9,2 C 7,8 C 7,2 C 95 % 999,6 hPa 0,2 l/m 0 min 2 min 0 W/m 19,3 km/h (3 Bft) 97,87 %
02.12.2018 04:26 9,2 C 7,8 C 7,2 C 95 % 999,5 hPa 0,2 l/m 0 min 2 min 0 W/m 12,9 km/h (3 Bft) 100,00 %
02.12.2018 04:28 9,1 C 7,8 C 7,2 C 95 % 999,5 hPa 0,0 l/m 0 min 2 min 0 W/m 19,3 km/h (3 Bft) 95,74 %
02.12.2018 04:30 9,1 C 7,8 C 7,2 C 95 % 999,6 hPa 0,0 l/m 0 min 2 min 0 W/m 22,5 km/h (4 Bft) 95,74 %
02.12.2018 04:32 9,1 C 7,8 C 7,2 C 95 % 999,5 hPa 0,2 l/m 0 min 2 min 0 W/m 22,5 km/h (4 Bft) 93,62 %
02.12.2018 04:34 9,1 C 7,8 C 7,2 C 95 % 999,5 hPa 0,2 l/m 0 min 2 min 0 W/m 12,9 km/h (3 Bft) 95,74 %
02.12.2018 04:36 9,0 C 7,8 C 7,2 C 95 % 999,4 hPa 0,0 l/m 0 min 2 min 0 W/m 12,9 km/h (3 Bft) 93,10 %
02.12.2018 04:38 9,0 C 7,8 C 7,2 C 95 % 999,4 hPa 0,2 l/m 0 min 2 min 0 W/m 12,9 km/h (3 Bft) 97,87 %
02.12.2018 04:40 9,0 C 7,8 C 7,2 C 95 % 999,4 hPa 0,0 l/m 0 min 2 min 0 W/m 16,1 km/h (3 Bft) 97,14 %
02.12.2018 04:42 9,0 C 7,8 C 7,2 C 95 % 999,3 hPa 0,2 l/m 0 min 2 min 0 W/m 16,1 km/h (3 Bft) 91,49 %
02.12.2018 04:44 8,9 C 7,8 C 7,2 C 95 % 999,3 hPa 0,0 l/m 0 min 2 min 0 W/m 12,9 km/h (3 Bft) 95,74 %
02.12.2018 04:46 8,9 C 7,8 C 7,2 C 95 % 999,3 hPa 0,2 l/m 0 min 2 min 0 W/m 9,7 km/h (2 Bft) 95,74 %
02.12.2018 04:48 8,9 C 7,8 C 7,2 C 96 % 999,3 hPa 0,2 l/m 0 min 2 min 0 W/m 22,5 km/h (4 Bft) 95,65 %
02.12.2018 04:50 8,9 C 7,8 C 7,2 C 96 % 999,4 hPa 0,0 l/m 0 min 2 min 0 W/m 16,1 km/h (3 Bft) 93,62 %
02.12.2018 04:52 8,9 C 7,8 C 7,2 C 96 % 999,3 hPa 0,2 l/m 0 min 2 min 0 W/m 12,9 km/h (3 Bft) 95,74 %
02.12.2018 04:54 8,9 C 7,8 C 7,2 C 96 % 999,3 hPa 0,0 l/m 0 min 2 min 0 W/m 19,3 km/h (3 Bft) 93,62 %
02.12.2018 04:56 8,9 C 7,8 C 7,2 C 96 % 999,2 hPa 0,2 l/m 0 min 2 min 0 W/m 22,5 km/h (4 Bft) 95,74 %
02.12.2018 04:58 8,9 C 7,8 C 7,2 C 96 % 999,2 hPa 0,0 l/m 0 min 2 min 0 W/m 12,9 km/h (3 Bft) 95,74 %
02.12.2018 05:00 8,9 C 7,8 C 7,2 C 96 % 999,2 hPa 0,0 l/m 0 min 2 min 0 W/m 25,7 km/h (4 Bft) 95,65 %
02.12.2018 05:02 8,9 C 7,8 C 7,2 C 96 % 999,2 hPa 0,2 l/m 0 min 2 min 0 W/m 19,3 km/h (3 Bft) 97,87 %
02.12.2018 05:04 8,8 C 7,8 C 7,2 C 96 % 999,1 hPa 0,0 l/m 0 min 2 min 0 W/m 16,1 km/h (3 Bft) 93,62 %
02.12.2018 05:06 8,8 C 7,8 C 7,2 C 96 % 999,0 hPa 0,2 l/m 0 min 2 min 0 W/m 12,9 km/h (3 Bft) 93,22 %
02.12.2018 05:08 8,8 C 7,8 C 7,2 C 96 % 999,0 hPa 0,0 l/m 0 min 2 min 0 W/m 16,1 km/h (3 Bft) 97,14 %
02.12.2018 05:10 8,8 C 7,8 C 7,2 C 96 % 998,9 hPa 0,0 l/m 0 min 2 min 0 W/m 16,1 km/h (3 Bft) 95,74 %
02.12.2018 05:12 8,8 C 7,8 C 7,2 C 96 % 998,8 hPa 0,0 l/m 0 min 2 min 0 W/m 16,1 km/h (3 Bft) 93,48 %
02.12.2018 05:14 8,8 C 7,8 C 7,2 C 96 % 998,8 hPa 0,0 l/m 0 min 2 min 0 W/m 16,1 km/h (3 Bft) 95,74 %
02.12.2018 05:16 8,8 C 7,8 C 7,2 C 96 % 998,8 hPa 0,0 l/m 0 min 2 min 0 W/m 22,5 km/h (4 Bft) 97,87 %
02.12.2018 05:18 8,8 C 7,8 C 7,2 C 96 % 998,7 hPa 0,2 l/m 0 min 2 min 0 W/m 12,9 km/h (3 Bft) 100,00 %
02.12.2018 05:20 8,8 C 7,8 C 7,2 C 96 % 998,7 hPa 0,0 l/m 0 min 2 min 0 W/m 12,9 km/h (3 Bft) 100,00 %
02.12.2018 05:22 8,8 C 7,8 C 7,2 C 96 % 998,6 hPa 0,0 l/m 0 min 2 min 0 W/m 22,5 km/h (4 Bft) 95,65 %
02.12.2018 05:24 8,8 C 7,8 C 7,2 C 96 % 998,6 hPa 0,2 l/m 0 min 2 min 0 W/m 12,9 km/h (3 Bft) 97,87 %
02.12.2018 05:26 8,8 C 7,8 C 7,2 C 96 % 998,6 hPa 0,0 l/m 0 min 2 min 0 W/m 19,3 km/h (3 Bft) 97,87 %
02.12.2018 05:28 8,7 C 7,8 C 7,2 C 96 % 998,6 hPa 0,0 l/m 0 min 2 min 0 W/m 12,9 km/h (3 Bft) 100,00 %
02.12.2018 05:30 8,7 C 7,8 C 7,2 C 97 % 998,5 hPa 0,0 l/m 0 min 2 min 0 W/m 19,3 km/h (3 Bft) 100,00 %
02.12.2018 05:32 8,7 C 7,8 C 7,2 C 97 % 998,5 hPa 0,2 l/m 0 min 2 min 0 W/m 25,7 km/h (4 Bft) 100,00 %
02.12.2018 05:34 8,7 C 7,8 C 7,2 C 97 % 998,5 hPa 0,2 l/m 0 min 2 min 0 W/m 19,3 km/h (3 Bft) 100,00 %
02.12.2018 05:36 8,7 C 7,8 C 7,2 C 97 % 998,5 hPa 0,0 l/m 0 min 2 min 0 W/m 25,7 km/h (4 Bft) 98,31 %
02.12.2018 05:38 8,7 C 7,8 C 7,2 C 97 % 998,5 hPa 0,0 l/m 0 min 2 min 0 W/m 25,7 km/h (4 Bft) 100,00 %
02.12.2018 05:40 8,7 C 7,8 C 7,2 C 97 % 998,5 hPa 0,2 l/m 0 min 2 min 0 W/m 12,9 km/h (3 Bft) 100,00 %
02.12.2018 05:42 8,7 C 7,8 C 7,2 C 97 % 998,5 hPa 0,2 l/m 0 min 2 min 0 W/m 19,3 km/h (3 Bft) 100,00 %
02.12.2018 05:44 8,7 C 7,8 C 7,2 C 97 % 998,4 hPa 0,0 l/m 0 min 2 min 0 W/m 19,3 km/h (3 Bft) 100,00 %
02.12.2018 05:46 8,7 C 7,8 C 7,2 C 97 % 998,4 hPa 0,2 l/m 0 min 2 min 0 W/m 16,1 km/h (3 Bft) 100,00 %
02.12.2018 05:48 8,7 C 7,8 C 7,2 C 97 % 998,4 hPa 0,2 l/m 0 min 2 min 0 W/m 25,7 km/h (4 Bft) 100,00 %
02.12.2018 05:50 8,7 C 7,8 C 7,2 C 97 % 998,4 hPa 0,0 l/m 0 min 2 min 0 W/m 19,3 km/h (3 Bft) 97,87 %
02.12.2018 05:52 8,7 C 7,8 C 7,2 C 97 % 998,4 hPa 0,4 l/m 0 min 2 min 0 W/m 16,1 km/h (3 Bft) 95,74 %
02.12.2018 05:54 8,7 C 7,8 C 7,2 C 97 % 998,3 hPa 0,0 l/m 0 min 2 min 0 W/m 19,3 km/h (3 Bft) 97,87 %
02.12.2018 05:56 8,7 C 7,8 C 7,2 C 97 % 998,3 hPa 0,2 l/m 0 min 2 min 0 W/m 19,3 km/h (3 Bft) 97,87 %
02.12.2018 05:58 8,7 C 7,8 C 7,2 C 97 % 998,3 hPa 0,0 l/m 0 min 2 min 0 W/m 22,5 km/h (4 Bft) 97,83 %
02.12.2018 06:00 8,7 C 7,8 C 7,2 C 97 % 998,3 hPa 0,2 l/m 0 min 2 min 0 W/m 16,1 km/h (3 Bft) 95,74 %
02.12.2018 06:02 8,6 C 7,8 C 7,2 C 97 % 998,2 hPa 0,0 l/m 0 min 2 min 0 W/m 12,9 km/h (3 Bft) 97,87 %
02.12.2018 06:04 8,6 C 7,8 C 7,2 C 97 % 998,2 hPa 0,2 l/m 0 min 2 min 0 W/m 19,3 km/h (3 Bft) 95,74 %
02.12.2018 06:08 8,6 C 7,8 C 7,2 C 97 % 998,2 hPa 0,0 l/m 0 min 4 min 0 W/m 16,1 km/h (3 Bft) 97,87 %
02.12.2018 06:10 8,6 C 7,8 C 7,2 C 97 % 998,2 hPa 0,0 l/m 0 min 2 min 0 W/m 22,5 km/h (4 Bft) 97,83 %
02.12.2018 06:12 8,6 C 7,8 C 7,2 C 97 % 998,2 hPa 0,0 l/m 0 min 2 min 0 W/m 19,3 km/h (3 Bft) 97,87 %
02.12.2018 06:14 8,6 C 7,8 C 7,2 C 97 % 998,2 hPa 0,2 l/m 0 min 2 min 0 W/m 22,5 km/h (4 Bft) 97,87 %
02.12.2018 06:16 8,7 C 7,8 C 7,2 C 97 % 998,1 hPa 0,0 l/m 0 min 2 min 0 W/m 16,1 km/h (3 Bft) 97,87 %
02.12.2018 06:18 8,6 C 7,8 C 7,2 C 97 % 998,1 hPa 0,0 l/m 0 min 2 min 0 W/m 22,5 km/h (4 Bft) 97,87 %
02.12.2018 06:20 8,6 C 7,8 C 7,2 C 97 % 998,0 hPa 0,0 l/m 0 min 2 min 0 W/m 19,3 km/h (3 Bft) 97,87 %
02.12.2018 06:22 8,6 C 7,8 C 7,2 C 97 % 997,9 hPa 0,0 l/m 0 min 2 min 0 W/m 16,1 km/h (3 Bft) 97,83 %
02.12.2018 06:24 8,6 C 7,8 C 7,2 C 97 % 997,8 hPa 0,0 l/m 0 min 2 min 0 W/m 16,1 km/h (3 Bft) 97,87 %
02.12.2018 06:26 8,6 C 7,8 C 7,2 C 97 % 997,8 hPa 0,0 l/m 0 min 2 min 0 W/m 25,7 km/h (4 Bft) 97,87 %
02.12.2018 06:28 8,6 C 7,8 C 7,2 C 97 % 997,8 hPa 0,2 l/m 0 min 2 min 0 W/m 19,3 km/h (3 Bft) 97,87 %
02.12.2018 06:30 8,6 C 7,8 C 7,2 C 97 % 997,8 hPa 0,0 l/m 0 min 2 min 0 W/m 29,0 km/h (5 Bft) 95,74 %
02.12.2018 06:32 8,6 C 7,8 C 7,2 C 97 % 997,8 hPa 0,0 l/m 0 min 2 min 0 W/m 25,7 km/h (4 Bft) 97,87 %
02.12.2018 06:34 8,6 C 7,8 C 7,2 C 97 % 997,8 hPa 0,0 l/m 0 min 2 min 0 W/m 12,9 km/h (3 Bft) 97,83 %
02.12.2018 06:36 8,6 C 7,8 C 7,2 C 97 % 997,7 hPa 0,0 l/m 0 min 2 min 0 W/m 16,1 km/h (3 Bft) 96,61 %
02.12.2018 06:38 8,6 C 7,8 C 7,2 C 97 % 997,7 hPa 0,0 l/m 0 min 2 min 0 W/m 19,3 km/h (3 Bft) 93,62 %
02.12.2018 06:40 8,7 C 7,8 C 7,2 C 98 % 997,7 hPa 0,2 l/m 0 min 2 min 0 W/m 12,9 km/h (3 Bft) 97,14 %
02.12.2018 06:42 8,6 C 7,8 C 7,2 C 98 % 997,6 hPa 0,0 l/m 0 min 2 min 0 W/m 19,3 km/h (3 Bft) 97,87 %
02.12.2018 06:44 8,6 C 7,8 C 7,2 C 98 % 997,6 hPa 0,0 l/m 0 min 2 min 0 W/m 16,1 km/h (3 Bft) 100,00 %
02.12.2018 06:46 8,7 C 7,8 C 7,2 C 98 % 997,5 hPa 0,0 l/m 0 min 2 min 0 W/m 22,5 km/h (4 Bft) 100,00 %
02.12.2018 06:48 8,7 C 7,8 C 7,2 C 98 % 997,5 hPa 0,0 l/m 0 min 2 min 0 W/m 16,1 km/h (3 Bft) 97,87 %
02.12.2018 06:50 8,6 C 7,8 C 7,2 C 98 % 997,5 hPa 0,0 l/m 0 min 2 min 0 W/m 19,3 km/h (3 Bft) 100,00 %
02.12.2018 06:52 8,7 C 7,8 C 7,2 C 98 % 997,5 hPa 0,0 l/m 0 min 2 min 0 W/m 19,3 km/h (3 Bft) 100,00 %
02.12.2018 06:54 8,7 C 7,8 C 7,2 C 98 % 997,4 hPa 0,0 l/m 0 min 2 min 0 W/m 16,1 km/h (3 Bft) 100,00 %
02.12.2018 06:56 8,7 C 7,8 C 7,2 C 98 % 997,5 hPa 0,0 l/m 0 min 2 min 0 W/m 19,3 km/h (3 Bft) 100,00 %
02.12.2018 06:58 8,7 C 7,8 C 7,2 C 98 % 997,5 hPa 0,0 l/m 0 min 2 min 0 W/m 16,1 km/h (3 Bft) 95,74 %
02.12.2018 07:00 8,7 C 7,8 C 7,2 C 98 % 997,5 hPa 0,0 l/m 0 min 2 min 0 W/m 12,9 km/h (3 Bft) 95,74 %
02.12.2018 07:02 8,7 C 7,8 C 7,2 C 98 % 997,4 hPa 0,0 l/m 0 min 0 min 0 W/m 16,1 km/h (3 Bft) 97,83 %
02.12.2018 07:04 8,7 C 7,8 C 7,2 C 98 % 997,4 hPa 0,2 l/m 0 min 0 min 0 W/m 22,5 km/h (4 Bft) 97,87 %
02.12.2018 07:06 8,7 C 7,8 C 7,2 C 98 % 997,4 hPa 0,0 l/m 0 min 0 min 0 W/m 22,5 km/h (4 Bft) 95,74 %
02.12.2018 07:08 8,7 C 7,8 C 7,2 C 98 % 997,4 hPa 0,0 l/m 0 min 0 min 0 W/m 16,1 km/h (3 Bft) 97,87 %
02.12.2018 07:10 8,7 C 7,8 C 7,2 C 98 % 997,5 hPa 0,0 l/m 0 min 2 min 0 W/m 16,1 km/h (3 Bft) 95,74 %
02.12.2018 07:12 8,7 C 7,8 C 7,2 C 98 % 997,5 hPa 0,0 l/m 0 min 2 min 0 W/m 19,3 km/h (3 Bft) 97,87 %
02.12.2018 07:14 8,7 C 7,8 C 7,2 C 98 % 997,5 hPa 0,2 l/m 0 min 2 min 0 W/m 19,3 km/h (3 Bft) 97,83 %
02.12.2018 07:16 8,7 C 7,8 C 7,2 C 98 % 997,5 hPa 0,0 l/m 0 min 2 min 0 W/m 16,1 km/h (3 Bft) 97,87 %
02.12.2018 07:18 8,7 C 7,8 C 7,2 C 98 % 997,4 hPa 0,0 l/m 0 min 2 min 0 W/m 19,3 km/h (3 Bft) 97,87 %
02.12.2018 07:20 8,7 C 7,8 C 7,2 C 98 % 997,3 hPa 0,2 l/m 0 min 2 min 0 W/m 16,1 km/h (3 Bft) 95,74 %
02.12.2018 07:22 8,7 C 7,8 C 7,2 C 98 % 997,3 hPa 0,0 l/m 0 min 2 min 0 W/m 19,3 km/h (3 Bft) 93,62 %
02.12.2018 07:24 8,7 C 7,8 C 7,2 C 98 % 997,3 hPa 0,2 l/m 0 min 2 min 0 W/m 16,1 km/h (3 Bft) 95,74 %
02.12.2018 07:26 8,7 C 7,8 C 7,2 C 98 % 997,2 hPa 0,0 l/m 0 min 2 min 0 W/m 25,7 km/h (4 Bft) 95,65 %
02.12.2018 07:28 8,7 C 7,8 C 7,2 C 98 % 997,2 hPa 0,0 l/m 0 min 2 min 0 W/m 19,3 km/h (3 Bft) 93,62 %
02.12.2018 07:30 8,7 C 7,8 C 7,2 C 98 % 997,2 hPa 0,0 l/m 0 min 2 min 0 W/m 16,1 km/h (3 Bft) 95,74 %
02.12.2018 07:32 8,7 C 7,8 C 7,2 C 98 % 997,1 hPa 0,0 l/m 0 min 2 min 0 W/m 12,9 km/h (3 Bft) 95,74 %
02.12.2018 07:34 8,7 C 7,8 C 7,8 C 98 % 997,1 hPa 0,2 l/m 0 min 2 min 0 W/m 16,1 km/h (3 Bft) 95,74 %
02.12.2018 07:36 8,7 C 7,8 C 7,8 C 98 % 997,2 hPa 0,0 l/m 0 min 2 min 0 W/m 32,2 km/h (5 Bft) 95,65 %
02.12.2018 07:38 8,7 C 7,8 C 7,8 C 98 % 997,2 hPa 0,0 l/m 0 min 2 min 0 W/m 16,1 km/h (3 Bft) 95,74 %
02.12.2018 07:40 8,7 C 7,8 C 7,8 C 98 % 997,2 hPa 0,2 l/m 0 min 2 min 0 W/m 19,3 km/h (3 Bft) 95,74 %
02.12.2018 07:42 8,7 C 7,8 C 7,8 C 98 % 997,2 hPa 0,0 l/m 0 min 2 min 0 W/m 19,3 km/h (3 Bft) 97,87 %
02.12.2018 07:44 8,8 C 7,8 C 7,8 C 98 % 997,2 hPa 0,0 l/m 0 min 2 min 0 W/m 16,1 km/h (3 Bft) 95,74 %
02.12.2018 07:46 8,8 C 7,8 C 7,8 C 98 % 997,1 hPa 0,2 l/m 0 min 2 min 0 W/m 12,9 km/h (3 Bft) 97,87 %
02.12.2018 07:48 8,8 C 7,8 C 7,8 C 98 % 997,0 hPa 0,0 l/m 0 min 2 min 0 W/m 12,9 km/h (3 Bft) 95,74 %
02.12.2018 07:50 8,8 C 7,8 C 7,8 C 98 % 997,1 hPa 0,2 l/m 0 min 2 min 0 W/m 16,1 km/h (3 Bft) 91,30 %
02.12.2018 07:52 8,8 C 7,8 C 7,8 C 98 % 997,0 hPa 0,0 l/m 0 min 2 min 0 W/m 16,1 km/h (3 Bft) 95,74 %
02.12.2018 07:54 8,8 C 7,8 C 7,8 C 98 % 997,0 hPa 0,2 l/m 0 min 2 min 0 W/m 16,1 km/h (3 Bft) 95,74 %
02.12.2018 07:56 8,8 C 7,8 C 7,8 C 98 % 997,0 hPa 0,0 l/m 0 min 2 min 0 W/m 16,1 km/h (3 Bft) 97,87 %
02.12.2018 07:58 8,8 C 7,8 C 7,8 C 98 % 997,0 hPa 0,0 l/m 0 min 2 min 0 W/m 12,9 km/h (3 Bft) 97,87 %
02.12.2018 08:00 8,8 C 8,3 C 7,8 C 98 % 997,0 hPa 0,2 l/m 0 min 2 min 0 W/m 16,1 km/h (3 Bft) 97,83 %
02.12.2018 08:02 8,8 C 8,3 C 7,8 C 98 % 997,0 hPa 0,0 l/m 0 min 2 min 0 W/m 12,9 km/h (3 Bft) 95,74 %
02.12.2018 08:04 8,8 C 8,3 C 7,8 C 98 % 996,9 hPa 0,2 l/m 0 min 2 min 0 W/m 16,1 km/h (3 Bft) 97,87 %
02.12.2018 08:06 8,8 C 8,3 C 7,8 C 98 % 997,0 hPa 0,0 l/m 0 min 2 min 0 W/m 12,9 km/h (3 Bft) 97,87 %
02.12.2018 08:08 8,8 C 8,3 C 7,8 C 98 % 997,0 hPa 0,2 l/m 0 min 2 min 0 W/m 12,9 km/h (3 Bft) 97,87 %
02.12.2018 08:10 8,9 C 8,3 C 7,8 C 98 % 997,1 hPa 0,0 l/m 0 min 2 min 0 W/m 12,9 km/h (3 Bft) 97,87 %
02.12.2018 08:12 8,9 C 8,3 C 7,8 C 98 % 997,1 hPa 0,0 l/m 0 min 2 min 0 W/m 9,7 km/h (2 Bft) 97,83 %
02.12.2018 08:14 8,9 C 8,3 C 7,8 C 98 % 997,0 hPa 0,4 l/m 0 min 2 min 0 W/m 16,1 km/h (3 Bft) 100,00 %
02.12.2018 08:16 8,9 C 8,3 C 7,8 C 98 % 997,0 hPa 0,0 l/m 0 min 2 min 0 W/m 12,9 km/h (3 Bft) 98,00 %
02.12.2018 08:18 8,9 C 8,3 C 7,8 C 99 % 997,0 hPa 0,2 l/m 0 min 2 min 0 W/m 16,1 km/h (3 Bft) 97,87 %
02.12.2018 08:20 8,9 C 8,3 C 7,8 C 99 % 997,1 hPa 0,2 l/m 0 min 2 min 0 W/m 12,9 km/h (3 Bft) 97,87 %
02.12.2018 08:22 8,9 C 8,3 C 7,8 C 99 % 997,1 hPa 0,0 l/m 0 min 2 min 0 W/m 12,9 km/h (3 Bft) 100,00 %
02.12.2018 08:24 9,0 C 8,3 C 7,8 C 99 % 997,1 hPa 0,0 l/m 0 min 2 min 0 W/m 12,9 km/h (3 Bft) 100,00 %
02.12.2018 08:26 9,0 C 8,3 C 7,8 C 99 % 997,0 hPa 0,0 l/m 0 min 2 min 0 W/m 9,7 km/h (2 Bft) 97,87 %
02.12.2018 08:28 9,0 C 8,3 C 7,8 C 99 % 996,9 hPa 0,0 l/m 0 min 2 min 0 W/m 9,7 km/h (2 Bft) 100,00 %
02.12.2018 08:30 9,1 C 8,3 C 7,8 C 99 % 996,9 hPa 0,0 l/m 0 min 2 min 0 W/m 12,9 km/h (3 Bft) 100,00 %
02.12.2018 08:32 9,1 C 8,3 C 7,8 C 99 % 996,9 hPa 0,0 l/m 0 min 2 min 0 W/m 9,7 km/h (2 Bft) 100,00 %
02.12.2018 08:34 9,1 C 8,3 C 7,8 C 99 % 996,9 hPa 0,0 l/m 0 min 0 min 0 W/m 16,1 km/h (3 Bft) 100,00 %
02.12.2018 08:36 9,1 C 8,3 C 7,8 C 99 % 996,8 hPa 0,0 l/m 0 min 0 min 0 W/m 9,7 km/h (2 Bft) 100,00 %
02.12.2018 08:38 9,2 C 8,3 C 7,8 C 99 % 996,8 hPa 0,0 l/m 0 min 0 min 0 W/m 6,4 km/h (2 Bft) 95,74 %
02.12.2018 08:40 9,2 C 8,3 C 7,8 C 99 % 996,9 hPa 0,0 l/m 0 min 0 min 0 W/m 12,9 km/h (3 Bft) 100,00 %
02.12.2018 08:42 9,2 C 8,3 C 7,8 C 99 % 996,8 hPa 0,0 l/m 0 min 0 min 0 W/m 6,4 km/h (2 Bft) 100,00 %
02.12.2018 08:44 9,2 C 8,3 C 8,3 C 99 % 996,7 hPa 0,0 l/m 0 min 0 min 2 W/m 16,1 km/h (3 Bft) 100,00 %
02.12.2018 08:46 9,2 C 8,9 C 7,8 C 99 % 996,7 hPa 0,0 l/m 0 min 0 min 6 W/m 12,9 km/h (3 Bft) 100,00 %
02.12.2018 08:48 9,2 C 8,9 C 8,3 C 99 % 996,8 hPa 0,0 l/m 0 min 0 min 7 W/m 16,1 km/h (3 Bft) 100,00 %
02.12.2018 08:50 9,3 C 8,9 C 8,3 C 99 % 996,9 hPa 0,0 l/m 0 min 0 min 9 W/m 9,7 km/h (2 Bft) 97,87 %
02.12.2018 08:52 9,3 C 8,9 C 8,3 C 99 % 997,0 hPa 0,0 l/m 0 min 2 min 9 W/m 9,7 km/h (2 Bft) 97,87 %
02.12.2018 08:54 9,3 C 8,9 C 8,3 C 99 % 997,0 hPa 0,2 l/m 0 min 2 min 9 W/m 6,4 km/h (2 Bft) 100,00 %
02.12.2018 08:56 9,3 C 8,9 C 8,3 C 99 % 997,0 hPa 0,0 l/m 0 min 0 min 9 W/m 6,4 km/h (2 Bft) 97,87 %
02.12.2018 08:58 9,4 C 8,9 C 8,3 C 99 % 997,0 hPa 0,0 l/m 0 min 2 min 9 W/m 9,7 km/h (2 Bft) 97,87 %
02.12.2018 09:00 9,4 C 8,9 C 8,3 C 99 % 996,9 hPa 0,0 l/m 0 min 2 min 9 W/m 6,4 km/h (2 Bft) 97,87 %
02.12.2018 09:02 9,4 C 8,9 C 8,3 C 99 % 996,9 hPa 0,0 l/m 0 min 2 min 7 W/m 6,4 km/h (2 Bft) 95,74 %
02.12.2018 09:04 9,4 C 8,9 C 8,3 C 99 % 996,8 hPa 0,0 l/m 0 min 0 min 7 W/m 12,9 km/h (3 Bft) 97,87 %
02.12.2018 09:06 9,4 C 8,9 C 8,3 C 99 % 996,7 hPa 0,0 l/m 0 min 2 min 7 W/m 12,9 km/h (3 Bft) 98,08 %
02.12.2018 09:08 9,4 C 8,9 C 8,3 C 99 % 996,7 hPa 0,0 l/m 0 min 2 min 9 W/m 12,9 km/h (3 Bft) 97,56 %
02.12.2018 09:10 9,5 C 8,9 C 8,3 C 99 % 996,8 hPa 0,0 l/m 0 min 2 min 10 W/m 9,7 km/h (2 Bft) 97,87 %
02.12.2018 09:12 9,5 C 8,9 C 8,3 C 99 % 996,9 hPa 0,0 l/m 0 min 2 min 11 W/m 6,4 km/h (2 Bft) 97,87 %
02.12.2018 09:14 9,5 C 8,9 C 8,3 C 99 % 996,9 hPa 0,0 l/m 0 min 2 min 9 W/m 9,7 km/h (2 Bft) 97,87 %
02.12.2018 09:16 9,6 C 8,9 C 8,3 C 99 % 996,8 hPa 0,0 l/m 0 min 0 min 9 W/m 9,7 km/h (2 Bft) 97,87 %
02.12.2018 09:18 9,6 C 8,9 C 8,3 C 99 % 996,6 hPa 0,0 l/m 0 min 0 min 9 W/m 6,4 km/h (2 Bft) 97,83 %
02.12.2018 09:20 9,6 C 8,9 C 8,3 C 99 % 996,7 hPa 0,0 l/m 0 min 0 min 9 W/m 12,9 km/h (3 Bft) 97,87 %
02.12.2018 09:22 9,6 C 8,9 C 8,3 C 99 % 996,8 hPa 0,0 l/m 0 min 2 min 9 W/m 9,7 km/h (2 Bft) 97,87 %
02.12.2018 09:24 9,7 C 9,4 C 8,3 C 99 % 996,7 hPa 0,0 l/m 0 min 0 min 9 W/m 9,7 km/h (2 Bft) 97,87 %
02.12.2018 09:26 9,7 C 9,4 C 8,9 C 99 % 996,8 hPa 0,0 l/m 0 min 0 min 9 W/m 6,4 km/h (2 Bft) 97,87 %
02.12.2018 09:28 9,7 C 9,4 C 8,9 C 99 % 996,8 hPa 0,0 l/m 0 min 0 min 10 W/m 9,7 km/h (2 Bft) 91,49 %
02.12.2018 09:30 9,7 C 9,4 C 8,9 C 99 % 996,8 hPa 0,0 l/m 0 min 0 min 11 W/m 6,4 km/h (2 Bft) 95,65 %
02.12.2018 09:32 9,7 C 9,4 C 8,9 C 99 % 996,8 hPa 0,0 l/m 0 min 2 min 11 W/m 12,9 km/h (3 Bft) 93,62 %
02.12.2018 09:34 9,8 C 9,4 C 8,9 C 99 % 996,8 hPa 0,0 l/m 0 min 0 min 12 W/m 9,7 km/h (2 Bft) 93,62 %
02.12.2018 09:36 9,8 C 9,4 C 8,9 C 99 % 996,8 hPa 0,0 l/m 0 min 0 min 13 W/m 12,9 km/h (3 Bft) 96,61 %
02.12.2018 09:38 9,9 C 9,4 C 8,9 C 99 % 996,8 hPa 0,0 l/m 0 min 0 min 16 W/m 9,7 km/h (2 Bft) 95,12 %
02.12.2018 09:40 9,9 C 9,4 C 8,9 C 99 % 996,7 hPa 0,0 l/m 0 min 0 min 18 W/m 9,7 km/h (2 Bft) 95,00 %
02.12.2018 09:42 10,0 C 9,4 C 8,9 C 99 % 996,7 hPa 0,0 l/m 0 min 0 min 17 W/m 19,3 km/h (3 Bft) 93,62 %
02.12.2018 09:44 10,1 C 9,4 C 8,9 C 99 % 996,7 hPa 0,0 l/m 0 min 0 min 17 W/m 9,7 km/h (2 Bft) 95,74 %
02.12.2018 09:46 10,1 C 10,0 C 8,9 C 99 % 996,8 hPa 0,0 l/m 0 min 0 min 17 W/m 16,1 km/h (3 Bft) 93,62 %
02.12.2018 09:48 10,2 C 10,0 C 9,4 C 99 % 996,8 hPa 0,0 l/m 0 min 0 min 18 W/m 19,3 km/h (3 Bft) 95,74 %
02.12.2018 09:50 10,2 C 10,0 C 9,4 C 99 % 996,8 hPa 0,0 l/m 0 min 2 min 19 W/m 19,3 km/h (3 Bft) 97,87 %
02.12.2018 09:52 10,3 C 10,0 C 9,4 C 99 % 996,7 hPa 0,0 l/m 0 min 2 min 19 W/m 22,5 km/h (4 Bft) 97,83 %
02.12.2018 09:54 10,3 C 10,0 C 9,4 C 99 % 996,7 hPa 0,0 l/m 0 min 2 min 14 W/m 16,1 km/h (3 Bft) 95,74 %
02.12.2018 09:56 10,3 C 10,0 C 9,4 C 99 % 996,7 hPa 0,0 l/m 0 min 2 min 12 W/m 12,9 km/h (3 Bft) 95,74 %
02.12.2018 09:58 10,4 C 10,0 C 9,4 C 99 % 997,0 hPa 0,2 l/m 0 min 2 min 12 W/m 12,9 km/h (3 Bft) 95,74 %
02.12.2018 10:00 10,4 C 10,0 C 9,4 C 99 % 997,0 hPa 0,2 l/m 0 min 2 min 10 W/m 25,7 km/h (4 Bft) 97,87 %
02.12.2018 10:02 10,5 C 10,0 C 9,4 C 99 % 997,2 hPa 0,4 l/m 0 min 2 min 9 W/m 9,7 km/h (2 Bft) 95,74 %
02.12.2018 10:04 10,6 C 10,0 C 9,4 C 99 % 996,9 hPa 0,4 l/m 0 min 2 min 9 W/m 12,9 km/h (3 Bft) 95,65 %
02.12.2018 10:06 10,6 C 10,0 C 9,4 C 99 % 996,9 hPa 0,0 l/m 0 min 2 min 10 W/m 12,9 km/h (3 Bft) 97,87 %
02.12.2018 10:08 10,6 C 10,0 C 9,4 C 99 % 997,0 hPa 0,2 l/m 0 min 2 min 11 W/m 16,1 km/h (3 Bft) 97,87 %
02.12.2018 10:10 10,7 C 10,0 C 9,4 C 99 % 997,0 hPa 0,0 l/m 0 min 2 min 14 W/m 9,7 km/h (2 Bft) 100,00 %
02.12.2018 10:12 10,7 C 10,0 C 9,4 C 99 % 997,0 hPa 0,0 l/m 0 min 2 min 14 W/m 9,7 km/h (2 Bft) 100,00 %
02.12.2018 10:14 10,7 C 10,0 C 9,4 C 99 % 997,0 hPa 0,0 l/m 0 min 0 min 15 W/m 9,7 km/h (2 Bft) 100,00 %
02.12.2018 10:16 10,8 C 10,0 C 9,4 C 99 % 997,0 hPa 0,0 l/m 0 min 0 min 17 W/m 12,9 km/h (3 Bft) 100,00 %
02.12.2018 10:18 10,8 C 10,6 C 9,4 C 99 % 997,0 hPa 0,0 l/m 0 min 0 min 18 W/m 9,7 km/h (2 Bft) 97,56 %
02.12.2018 10:20 10,8 C 10,6 C 9,4 C 99 % 997,0 hPa 0,0 l/m 0 min 0 min 19 W/m 16,1 km/h (3 Bft) 100,00 %
02.12.2018 10:22 10,8 C 10,6 C 10,0 C 99 % 996,9 hPa 0,0 l/m 0 min 0 min 18 W/m 19,3 km/h (3 Bft) 100,00 %
02.12.2018 10:24 10,9 C 10,6 C 10,0 C 99 % 997,0 hPa 0,0 l/m 0 min 0 min 20 W/m 16,1 km/h (3 Bft) 97,87 %
02.12.2018 10:26 10,9 C 10,6 C 10,0 C 99 % 996,9 hPa 0,0 l/m 0 min 0 min 20 W/m 22,5 km/h (4 Bft) 97,87 %
02.12.2018 10:28 11,0 C 10,6 C 10,0 C 99 % 997,0 hPa 0,0 l/m 0 min 0 min 21 W/m 16,1 km/h (3 Bft) 100,00 %
02.12.2018 10:30 11,0 C 10,6 C 10,0 C 99 % 997,0 hPa 0,0 l/m 0 min 0 min 24 W/m 19,3 km/h (3 Bft) 100,00 %
02.12.2018 10:32 11,1 C 10,6 C 10,0 C 99 % 997,0 hPa 0,0 l/m 0 min 0 min 25 W/m 16,1 km/h (3 Bft) 97,87 %
02.12.2018 10:34 11,1 C 10,6 C 10,0 C 99 % 997,0 hPa 0,0 l/m 0 min 0 min 26 W/m 19,3 km/h (3 Bft) 97,87 %
02.12.2018 10:36 11,1 C 10,6 C 10,0 C 99 % 997,0 hPa 0,0 l/m 0 min 0 min 24 W/m 16,1 km/h (3 Bft) 100,00 %
02.12.2018 10:38 11,2 C 10,6 C 10,0 C 99 % 997,0 hPa 0,0 l/m 0 min 0 min 25 W/m 12,9 km/h (3 Bft) 100,00 %
02.12.2018 10:40 11,2 C 10,6 C 10,0 C 99 % 997,1 hPa 0,0 l/m 0 min 2 min 27 W/m 19,3 km/h (3 Bft) 98,15 %
02.12.2018 10:42 11,2 C 10,6 C 10,0 C 99 % 997,1 hPa 0,0 l/m 0 min 2 min 26 W/m 22,5 km/h (4 Bft) 97,87 %
02.12.2018 10:44 11,3 C 10,6 C 10,0 C 99 % 997,0 hPa 0,2 l/m 0 min 2 min 22 W/m 12,9 km/h (3 Bft) 97,83 %
02.12.2018 10:46 11,3 C 10,6 C 10,0 C 99 % 997,1 hPa 0,0 l/m 0 min 2 min 18 W/m 22,5 km/h (4 Bft) 97,87 %
02.12.2018 10:48 11,3 C 10,6 C 10,0 C 99 % 997,1 hPa 0,0 l/m 0 min 2 min 16 W/m 19,3 km/h (3 Bft) 97,87 %
02.12.2018 10:50 11,3 C 10,6 C 10,0 C 99 % 997,1 hPa 0,0 l/m 0 min 0 min 14 W/m 25,7 km/h (4 Bft) 97,87 %
02.12.2018 10:52 11,4 C 10,6 C 10,0 C 99 % 997,2 hPa 0,0 l/m 0 min 2 min 17 W/m 25,7 km/h (4 Bft) 95,74 %
02.12.2018 10:54 11,4 C 10,6 C 10,0 C 99 % 997,2 hPa 0,0 l/m 0 min 0 min 15 W/m 19,3 km/h (3 Bft) 97,87 %
02.12.2018 10:56 11,4 C 10,6 C 10,0 C 99 % 997,2 hPa 0,0 l/m 0 min 0 min 15 W/m 22,5 km/h (4 Bft) 97,83 %
02.12.2018 10:58 11,4 C 11,1 C 10,0 C 99 % 997,2 hPa 0,0 l/m 0 min 0 min 18 W/m 25,7 km/h (4 Bft) 97,87 %
02.12.2018 11:00 11,5 C 11,1 C 10,0 C 99 % 997,2 hPa 0,0 l/m 0 min 0 min 19 W/m 12,9 km/h (3 Bft) 97,87 %
02.12.2018 11:02 11,5 C 11,1 C 10,0 C 100 % 997,2 hPa 0,0 l/m 0 min 0 min 20 W/m 16,1 km/h (3 Bft) 97,87 %
02.12.2018 11:04 11,6 C 11,1 C 10,0 C 100 % 997,1 hPa 0,0 l/m 0 min 0 min 19 W/m 19,3 km/h (3 Bft) 97,87 %
02.12.2018 11:06 11,6 C 11,1 C 10,6 C 100 % 997,2 hPa 0,0 l/m 0 min 0 min 26 W/m 29,0 km/h (5 Bft) 97,87 %
02.12.2018 11:08 11,6 C 11,1 C 10,6 C 100 % 997,2 hPa 0,0 l/m 0 min 0 min 37 W/m 32,2 km/h (5 Bft) 97,83 %
02.12.2018 11:10 11,6 C 11,1 C 10,6 C 100 % 997,2 hPa 0,0 l/m 0 min 0 min 46 W/m 12,9 km/h (3 Bft) 97,87 %
02.12.2018 11:12 11,7 C 11,1 C 10,6 C 100 % 997,3 hPa 0,0 l/m 0 min 0 min 40 W/m 25,7 km/h (4 Bft) 95,74 %
02.12.2018 11:14 11,7 C 11,1 C 10,6 C 100 % 997,2 hPa 0,0 l/m 0 min 0 min 39 W/m 16,1 km/h (3 Bft) 97,87 %
02.12.2018 11:16 11,7 C 11,1 C 10,6 C 99 % 997,2 hPa 0,0 l/m 0 min 0 min 44 W/m 16,1 km/h (3 Bft) 97,87 %
02.12.2018 11:18 11,7 C 11,1 C 10,6 C 99 % 997,3 hPa 0,0 l/m 0 min 0 min 59 W/m 29,0 km/h (5 Bft) 97,87 %
02.12.2018 11:20 11,8 C 11,1 C 10,6 C 99 % 997,3 hPa 0,0 l/m 0 min 0 min 63 W/m 19,3 km/h (3 Bft) 95,65 %
02.12.2018 11:22 11,8 C 11,1 C 10,6 C 99 % 997,3 hPa 0,0 l/m 0 min 0 min 69 W/m 19,3 km/h (3 Bft) 95,74 %
02.12.2018 11:24 11,8 C 11,1 C 10,6 C 99 % 997,2 hPa 0,0 l/m 0 min 0 min 57 W/m 16,1 km/h (3 Bft) 97,87 %
02.12.2018 11:26 11,9 C 11,7 C 10,6 C 100 % 997,3 hPa 0,0 l/m 0 min 0 min 67 W/m 35,4 km/h (5 Bft) 97,87 %
02.12.2018 11:28 11,9 C 11,7 C 10,6 C 100 % 997,2 hPa 0,0 l/m 0 min 0 min 66 W/m 19,3 km/h (3 Bft) 97,87 %
02.12.2018 11:30 11,9 C 11,7 C 10,6 C 100 % 997,2 hPa 0,0 l/m 0 min 0 min 59 W/m 19,3 km/h (3 Bft) 97,87 %
02.12.2018 11:32 11,9 C 11,7 C 10,6 C 100 % 997,2 hPa 0,0 l/m 0 min 0 min 50 W/m 22,5 km/h (4 Bft) 97,83 %
02.12.2018 11:34 12,0 C 11,7 C 10,6 C 100 % 997,2 hPa 0,0 l/m 0 min 2 min 40 W/m 22,5 km/h (4 Bft) 97,87 %
02.12.2018 11:36 12,0 C 11,7 C 10,6 C 100 % 997,1 hPa 0,0 l/m 0 min 2 min 35 W/m 19,3 km/h (3 Bft) 97,87 %
02.12.2018 11:38 12,1 C 11,7 C 10,6 C 100 % 997,2 hPa 0,0 l/m 0 min 2 min 31 W/m 22,5 km/h (4 Bft) 97,87 %
02.12.2018 11:40 12,1 C 11,7 C 10,6 C 99 % 997,1 hPa 0,0 l/m 0 min 2 min 39 W/m 19,3 km/h (3 Bft) 97,87 %
02.12.2018 11:42 12,1 C 11,7 C 10,6 C 99 % 997,0 hPa 0,0 l/m 0 min 2 min 39 W/m 22,5 km/h (4 Bft) 100,00 %
02.12.2018 11:44 12,1 C 11,7 C 10,6 C 99 % 997,0 hPa 0,0 l/m 0 min 2 min 32 W/m 16,1 km/h (3 Bft) 100,00 %
02.12.2018 11:46 12,1 C 11,7 C 10,6 C 99 % 997,0 hPa 0,0 l/m 0 min 2 min 32 W/m 19,3 km/h (3 Bft) 97,87 %
02.12.2018 11:48 12,2 C 11,7 C 10,6 C 99 % 997,0 hPa 0,0 l/m 0 min 2 min 34 W/m 19,3 km/h (3 Bft) 100,00 %
02.12.2018 11:50 12,2 C 11,7 C 10,6 C 99 % 996,9 hPa 0,0 l/m 0 min 2 min 50 W/m 12,9 km/h (3 Bft) 97,87 %
02.12.2018 11:52 12,2 C 11,7 C 11,1 C 99 % 997,0 hPa 0,0 l/m 0 min 2 min 63 W/m 22,5 km/h (4 Bft) 97,87 %
02.12.2018 11:54 12,2 C 11,7 C 11,1 C 99 % 997,0 hPa 0,0 l/m 0 min 2 min 62 W/m 22,5 km/h (4 Bft) 97,83 %
02.12.2018 11:56 12,2 C 11,7 C 11,1 C 100 % 996,9 hPa 0,0 l/m 0 min 2 min 66 W/m 19,3 km/h (3 Bft) 95,74 %
02.12.2018 11:58 12,3 C 11,7 C 11,1 C 100 % 997,0 hPa 0,0 l/m 0 min 2 min 78 W/m 19,3 km/h (3 Bft) 97,87 %
02.12.2018 12:00 12,3 C 11,7 C 11,1 C 100 % 996,9 hPa 0,0 l/m 0 min 2 min 75 W/m 16,1 km/h (3 Bft) 93,62 %
02.12.2018 12:02 12,3 C 11,7 C 11,1 C 100 % 996,8 hPa 0,0 l/m 0 min 2 min 71 W/m 12,9 km/h (3 Bft) 93,62 %
02.12.2018 12:04 12,3 C 11,7 C 11,1 C 100 % 996,9 hPa 0,0 l/m 0 min 2 min 60 W/m 19,3 km/h (3 Bft) 95,74 %
02.12.2018 12:08 12,4 C 11,7 C 11,1 C 100 % 997,0 hPa 0,0 l/m 0 min 4 min 54 W/m 25,7 km/h (4 Bft) 95,70 %
02.12.2018 12:10 12,4 C 11,7 C 11,1 C 100 % 996,9 hPa 0,0 l/m 0 min 2 min 72 W/m 9,7 km/h (2 Bft) 95,74 %
02.12.2018 12:12 12,4 C 11,7 C 11,1 C 99 % 997,0 hPa 0,0 l/m 0 min 2 min 84 W/m 22,5 km/h (4 Bft) 95,74 %
02.12.2018 12:14 12,4 C 11,7 C 11,1 C 99 % 997,0 hPa 0,0 l/m 0 min 2 min 88 W/m 19,3 km/h (3 Bft) 93,62 %
02.12.2018 12:16 12,5 C 11,7 C 11,1 C 99 % 997,0 hPa 0,0 l/m 0 min 2 min 57 W/m 22,5 km/h (4 Bft) 93,62 %
02.12.2018 12:18 12,4 C 11,7 C 11,1 C 99 % 997,0 hPa 0,0 l/m 0 min 2 min 38 W/m 12,9 km/h (3 Bft) 93,48 %
02.12.2018 12:20 12,5 C 11,7 C 11,1 C 99 % 997,0 hPa 0,0 l/m 0 min 0 min 41 W/m 16,1 km/h (3 Bft) 95,74 %
02.12.2018 12:22 12,5 C 11,7 C 11,1 C 99 % 997,1 hPa 0,0 l/m 0 min 0 min 40 W/m 12,9 km/h (3 Bft) 95,74 %
02.12.2018 12:24 12,5 C 11,7 C 11,1 C 99 % 997,0 hPa 0,0 l/m 0 min 0 min 39 W/m 25,7 km/h (4 Bft) 93,62 %
02.12.2018 12:26 12,6 C 12,2 C 11,1 C 99 % 997,0 hPa 0,0 l/m 0 min 0 min 51 W/m 12,9 km/h (3 Bft) 95,74 %
02.12.2018 12:28 12,6 C 12,2 C 11,1 C 99 % 997,0 hPa 0,0 l/m 0 min 0 min 45 W/m 12,9 km/h (3 Bft) 95,74 %
02.12.2018 12:30 12,6 C 12,2 C 11,1 C 100 % 997,1 hPa 0,0 l/m 0 min 0 min 38 W/m 25,7 km/h (4 Bft) 95,65 %
02.12.2018 12:32 12,6 C 12,2 C 11,1 C 100 % 997,0 hPa 0,0 l/m 0 min 2 min 43 W/m 12,9 km/h (3 Bft) 95,74 %
02.12.2018 12:34 12,6 C 12,2 C 11,1 C 100 % 997,1 hPa 0,0 l/m 0 min 0 min 49 W/m 16,1 km/h (3 Bft) 97,87 %
02.12.2018 12:36 12,7 C 12,2 C 11,7 C 100 % 997,1 hPa 0,2 l/m 0 min 0 min 54 W/m 32,2 km/h (5 Bft) 97,87 %
02.12.2018 12:38 12,7 C 12,2 C 11,7 C 100 % 997,1 hPa 0,0 l/m 0 min 2 min 54 W/m 16,1 km/h (3 Bft) 97,87 %
02.12.2018 12:40 12,7 C 12,2 C 11,7 C 100 % 997,1 hPa 0,0 l/m 0 min 2 min 68 W/m 22,5 km/h (4 Bft) 95,74 %
02.12.2018 12:42 12,7 C 12,2 C 11,7 C 100 % 997,1 hPa 0,0 l/m 0 min 2 min 82 W/m 16,1 km/h (3 Bft) 97,83 %
02.12.2018 12:44 12,7 C 12,2 C 11,7 C 100 % 997,1 hPa 0,0 l/m 0 min 2 min 66 W/m 22,5 km/h (4 Bft) 97,87 %
02.12.2018 12:46 12,8 C 12,2 C 11,7 C 99 % 997,2 hPa 0,0 l/m 0 min 2 min 64 W/m 16,1 km/h (3 Bft) 97,87 %
02.12.2018 12:48 12,8 C 12,2 C 11,7 C 99 % 997,1 hPa 0,0 l/m 0 min 2 min 62 W/m 9,7 km/h (2 Bft) 97,87 %
02.12.2018 12:50 12,8 C 12,2 C 11,7 C 99 % 997,1 hPa 0,0 l/m 0 min 2 min 63 W/m 9,7 km/h (2 Bft) 95,74 %
02.12.2018 12:52 12,8 C 12,2 C 11,7 C 99 % 997,1 hPa 0,0 l/m 0 min 2 min 66 W/m 16,1 km/h (3 Bft) 100,00 %
02.12.2018 12:54 12,8 C 12,2 C 11,7 C 99 % 997,3 hPa 0,0 l/m 0 min 2 min 59 W/m 19,3 km/h (3 Bft) 100,00 %
02.12.2018 12:56 12,9 C 12,2 C 11,7 C 99 % 997,4 hPa 0,0 l/m 0 min 2 min 59 W/m 25,7 km/h (4 Bft) 97,87 %
02.12.2018 12:58 12,9 C 12,2 C 11,7 C 99 % 997,3 hPa 0,0 l/m 0 min 2 min 66 W/m 19,3 km/h (3 Bft) 93,62 %
02.12.2018 13:00 12,9 C 12,2 C 11,7 C 99 % 997,3 hPa 0,0 l/m 0 min 2 min 70 W/m 16,1 km/h (3 Bft) 97,87 %
02.12.2018 13:02 12,9 C 12,2 C 11,7 C 100 % 997,3 hPa 0,0 l/m 0 min 2 min 70 W/m 22,5 km/h (4 Bft) 100,00 %
02.12.2018 13:04 12,9 C 12,2 C 11,7 C 100 % 997,3 hPa 0,0 l/m 0 min 0 min 75 W/m 19,3 km/h (3 Bft) 100,00 %
02.12.2018 13:06 12,9 C 12,2 C 11,7 C 100 % 997,3 hPa 0,0 l/m 0 min 2 min 82 W/m 12,9 km/h (3 Bft) 97,83 %
02.12.2018 13:08 12,9 C 12,8 C 11,7 C 100 % 997,2 hPa 0,0 l/m 0 min 2 min 97 W/m 12,9 km/h (3 Bft) 97,87 %
02.12.2018 13:10 13,0 C 12,8 C 11,7 C 100 % 997,3 hPa 0,0 l/m 0 min 2 min 111 W/m 6,4 km/h (2 Bft) 95,74 %
02.12.2018 13:12 13,0 C 12,8 C 11,7 C 100 % 997,3 hPa 0,0 l/m 0 min 2 min 125 W/m 19,3 km/h (3 Bft) 100,00 %
02.12.2018 13:14 13,1 C 12,8 C 11,7 C 100 % 997,4 hPa 0,0 l/m 0 min 2 min 129 W/m 19,3 km/h (3 Bft) 100,00 %
02.12.2018 13:16 13,1 C 12,8 C 11,7 C 99 % 997,4 hPa 0,0 l/m 0 min 2 min 104 W/m 16,1 km/h (3 Bft) 97,83 %
02.12.2018 13:18 13,1 C 12,8 C 11,7 C 99 % 997,4 hPa 0,0 l/m 0 min 0 min 81 W/m 25,7 km/h (4 Bft) 100,00 %
02.12.2018 13:20 13,2 C 12,8 C 11,7 C 99 % 997,4 hPa 0,0 l/m 0 min 2 min 83 W/m 19,3 km/h (3 Bft) 100,00 %
02.12.2018 13:22 13,2 C 12,8 C 11,7 C 99 % 997,3 hPa 0,0 l/m 0 min 2 min 85 W/m 22,5 km/h (4 Bft) 100,00 %
02.12.2018 13:25 13,2 C 12,8 C 11,7 C 99 % 997,4 hPa 0,0 l/m 0 min 0 min 64 W/m 19,3 km/h (3 Bft) 100,00 %
02.12.2018 13:26 13,2 C 12,8 C 11,7 C 99 % 997,4 hPa 0,0 l/m 0 min 0 min 53 W/m 12,9 km/h (3 Bft) 100,00 %
02.12.2018 13:28 13,2 C 12,8 C 11,7 C 99 % 997,4 hPa 0,0 l/m 0 min 0 min 47 W/m 25,7 km/h (4 Bft) 97,83 %
02.12.2018 13:30 13,3 C 12,8 C 11,7 C 99 % 997,3 hPa 0,0 l/m 0 min 0 min 50 W/m 19,3 km/h (3 Bft) 100,00 %
02.12.2018 13:32 13,3 C 12,8 C 11,7 C 99 % 997,4 hPa 0,0 l/m 0 min 0 min 77 W/m 19,3 km/h (3 Bft) 100,00 %
02.12.2018 13:34 13,3 C 12,8 C 12,2 C 99 % 997,4 hPa 0,0 l/m 0 min 0 min 81 W/m 29,0 km/h (5 Bft) 100,00 %
02.12.2018 13:36 13,3 C 12,8 C 12,2 C 99 % 997,4 hPa 0,0 l/m 0 min 0 min 87 W/m 22,5 km/h (4 Bft) 100,00 %
02.12.2018 13:38 13,3 C 12,8 C 12,2 C 99 % 997,4 hPa 0,0 l/m 0 min 0 min 74 W/m 19,3 km/h (3 Bft) 100,00 %
02.12.2018 13:40 13,3 C 12,8 C 12,2 C 99 % 997,4 hPa 0,0 l/m 0 min 0 min 83 W/m 25,7 km/h (4 Bft) 97,83 %
02.12.2018 13:42 13,3 C 12,8 C 12,2 C 99 % 997,5 hPa 0,0 l/m 0 min 0 min 53 W/m 19,3 km/h (3 Bft) 100,00 %
02.12.2018 13:44 13,3 C 12,8 C 12,2 C 99 % 997,5 hPa 0,0 l/m 0 min 0 min 46 W/m 6,4 km/h (2 Bft) 100,00 %
02.12.2018 13:46 13,3 C 12,8 C 12,2 C 99 % 997,5 hPa 0,0 l/m 0 min 0 min 52 W/m 16,1 km/h (3 Bft) 95,74 %
02.12.2018 13:48 13,3 C 12,8 C 12,2 C 99 % 997,5 hPa 0,0 l/m 0 min 0 min 55 W/m 22,5 km/h (4 Bft) 97,87 %
02.12.2018 13:50 13,3 C 12,8 C 11,7 C 99 % 997,5 hPa 0,0 l/m 0 min 0 min 49 W/m 9,7 km/h (2 Bft) 97,87 %
02.12.2018 13:52 13,4 C 12,8 C 11,7 C 99 % 997,5 hPa 0,0 l/m 0 min 0 min 47 W/m 6,4 km/h (2 Bft) 100,00 %
02.12.2018 13:54 13,4 C 12,8 C 11,7 C 99 % 997,6 hPa 0,0 l/m 0 min 0 min 54 W/m 19,3 km/h (3 Bft) 97,87 %
02.12.2018 13:56 13,4 C 12,8 C 12,2 C 99 % 997,5 hPa 0,0 l/m 0 min 0 min 54 W/m 12,9 km/h (3 Bft) 97,87 %
02.12.2018 13:58 13,4 C 12,8 C 12,2 C 99 % 997,5 hPa 0,0 l/m 0 min 0 min 55 W/m 9,7 km/h (2 Bft) 97,87 %
02.12.2018 14:00 13,4 C 12,8 C 12,2 C 99 % 997,5 hPa 0,0 l/m 0 min 0 min 61 W/m 6,4 km/h (2 Bft) 100,00 %
02.12.2018 14:02 13,4 C 12,8 C 12,2 C 99 % 997,5 hPa 0,0 l/m 0 min 0 min 62 W/m 25,7 km/h (4 Bft) 95,74 %
02.12.2018 14:04 13,4 C 12,8 C 12,2 C 99 % 997,5 hPa 0,0 l/m 0 min 0 min 59 W/m 25,7 km/h (4 Bft) 97,83 %
02.12.2018 14:06 13,4 C 12,8 C 12,2 C 99 % 997,6 hPa 0,0 l/m 0 min 0 min 55 W/m 19,3 km/h (3 Bft) 97,87 %
02.12.2018 14:08 13,4 C 12,8 C 12,2 C 99 % 997,6 hPa 0,0 l/m 0 min 0 min 43 W/m 22,5 km/h (4 Bft) 97,87 %
02.12.2018 14:10 13,4 C 12,8 C 12,2 C 99 % 997,5 hPa 0,0 l/m 0 min 0 min 37 W/m 9,7 km/h (2 Bft) 97,87 %
02.12.2018 14:12 13,4 C 12,8 C 12,2 C 99 % 997,6 hPa 0,0 l/m 0 min 0 min 32 W/m 12,9 km/h (3 Bft) 95,74 %
02.12.2018 14:14 13,4 C 12,8 C 12,2 C 99 % 997,7 hPa 0,0 l/m 0 min 0 min 37 W/m 12,9 km/h (3 Bft) 97,87 %
02.12.2018 14:16 13,4 C 12,8 C 12,2 C 99 % 997,6 hPa 0,0 l/m 0 min 0 min 45 W/m 16,1 km/h (3 Bft) 95,65 %
02.12.2018 14:18 13,4 C 12,8 C 12,2 C 99 % 997,6 hPa 0,0 l/m 0 min 0 min 53 W/m 12,9 km/h (3 Bft) 95,74 %
02.12.2018 14:20 13,4 C 12,8 C 12,2 C 99 % 997,5 hPa 0,0 l/m 0 min 0 min 51 W/m 9,7 km/h (2 Bft) 97,46 %
02.12.2018 14:22 13,4 C 12,8 C 12,2 C 99 % 997,6 hPa 0,0 l/m 0 min 0 min 46 W/m 16,1 km/h (3 Bft) 95,08 %
02.12.2018 14:24 13,4 C 12,8 C 12,2 C 99 % 997,6 hPa 0,0 l/m 0 min 0 min 39 W/m 22,5 km/h (4 Bft) 91,49 %
02.12.2018 14:26 13,4 C 12,8 C 12,2 C 99 % 997,7 hPa 0,0 l/m 0 min 0 min 51 W/m 9,7 km/h (2 Bft) 95,74 %
02.12.2018 14:28 13,4 C 12,8 C 12,2 C 99 % 997,6 hPa 0,0 l/m 0 min 0 min 40 W/m 12,9 km/h (3 Bft) 93,62 %
02.12.2018 14:30 13,4 C 12,8 C 12,2 C 98 % 997,7 hPa 0,0 l/m 0 min 0 min 25 W/m 12,9 km/h (3 Bft) 95,74 %
02.12.2018 14:32 13,4 C 12,8 C 11,7 C 98 % 997,6 hPa 0,0 l/m 0 min 0 min 19 W/m 12,9 km/h (3 Bft) 95,65 %
02.12.2018 14:34 13,4 C 12,8 C 11,7 C 98 % 997,6 hPa 0,0 l/m 0 min 0 min 19 W/m 22,5 km/h (4 Bft) 93,62 %
02.12.2018 14:36 13,4 C 12,8 C 12,2 C 98 % 997,7 hPa 0,0 l/m 0 min 0 min 19 W/m 16,1 km/h (3 Bft) 94,92 %
02.12.2018 14:38 13,4 C 12,8 C 11,7 C 98 % 997,7 hPa 0,0 l/m 0 min 0 min 20 W/m 12,9 km/h (3 Bft) 97,14 %
02.12.2018 14:40 13,4 C 12,8 C 11,7 C 98 % 997,8 hPa 0,0 l/m 0 min 0 min 17 W/m 12,9 km/h (3 Bft) 93,62 %
02.12.2018 14:42 13,4 C 12,8 C 11,7 C 98 % 997,8 hPa 0,0 l/m 0 min 2 min 15 W/m 19,3 km/h (3 Bft) 95,74 %
02.12.2018 14:44 13,4 C 12,8 C 11,7 C 98 % 997,9 hPa 0,0 l/m 0 min 2 min 15 W/m 12,9 km/h (3 Bft) 95,74 %
02.12.2018 14:46 13,4 C 12,8 C 11,7 C 98 % 997,8 hPa 0,0 l/m 0 min 0 min 14 W/m 16,1 km/h (3 Bft) 95,65 %
02.12.2018 14:48 13,4 C 12,8 C 11,7 C 98 % 997,9 hPa 0,0 l/m 0 min 0 min 16 W/m 22,5 km/h (4 Bft) 95,74 %
02.12.2018 14:50 13,4 C 12,8 C 11,7 C 98 % 997,8 hPa 0,0 l/m 0 min 0 min 19 W/m 16,1 km/h (3 Bft) 95,74 %
02.12.2018 14:52 13,4 C 12,8 C 11,7 C 98 % 997,9 hPa 0,0 l/m 0 min 0 min 16 W/m 16,1 km/h (3 Bft) 95,74 %
02.12.2018 14:54 13,4 C 12,8 C 11,7 C 98 % 998,0 hPa 0,0 l/m 0 min 0 min 15 W/m 6,4 km/h (2 Bft) 95,74 %
02.12.2018 14:56 13,4 C 12,8 C 11,7 C 98 % 998,0 hPa 0,0 l/m 0 min 0 min 13 W/m 19,3 km/h (3 Bft) 97,83 %
02.12.2018 14:58 13,4 C 12,8 C 11,7 C 98 % 998,0 hPa 0,0 l/m 0 min 0 min 13 W/m 9,7 km/h (2 Bft) 97,87 %
02.12.2018 15:00 13,4 C 12,8 C 11,7 C 98 % 998,0 hPa 0,0 l/m 0 min 0 min 15 W/m 12,9 km/h (3 Bft) 100,00 %
02.12.2018 15:02 13,3 C 12,8 C 11,7 C 98 % 998,1 hPa 0,0 l/m 0 min 0 min 15 W/m 16,1 km/h (3 Bft) 97,87 %
02.12.2018 15:04 13,3 C 12,8 C 11,7 C 97 % 998,0 hPa 0,0 l/m 0 min 0 min 15 W/m 16,1 km/h (3 Bft) 95,74 %
02.12.2018 15:06 13,3 C 12,8 C 11,7 C 97 % 998,1 hPa 0,0 l/m 0 min 0 min 14 W/m 16,1 km/h (3 Bft) 98,28 %
02.12.2018 15:08 13,3 C 12,8 C 11,7 C 97 % 998,0 hPa 0,0 l/m 0 min 0 min 14 W/m 16,1 km/h (3 Bft) 97,14 %
02.12.2018 15:10 13,3 C 12,8 C 11,7 C 97 % 998,0 hPa 0,0 l/m 0 min 0 min 14 W/m 16,1 km/h (3 Bft) 97,87 %
02.12.2018 15:12 13,3 C 12,8 C 11,7 C 97 % 998,1 hPa 0,0 l/m 0 min 0 min 16 W/m 12,9 km/h (3 Bft) 95,74 %
02.12.2018 15:14 13,3 C 12,8 C 11,7 C 97 % 998,1 hPa 0,0 l/m 0 min 0 min 13 W/m 16,1 km/h (3 Bft) 95,74 %
02.12.2018 15:16 13,3 C 12,8 C 11,7 C 97 % 998,2 hPa 0,0 l/m 0 min 0 min 7 W/m 16,1 km/h (3 Bft) 93,62 %
02.12.2018 15:18 13,3 C 12,8 C 11,7 C 97 % 998,2 hPa 0,0 l/m 0 min 0 min 3 W/m 12,9 km/h (3 Bft) 97,87 %
02.12.2018 15:20 13,3 C 12,2 C 11,7 C 97 % 998,2 hPa 0,0 l/m 0 min 0 min 8 W/m 9,7 km/h (2 Bft) 97,83 %
02.12.2018 15:22 13,3 C 12,2 C 11,7 C 97 % 998,3 hPa 0,0 l/m 0 min 0 min 10 W/m 16,1 km/h (3 Bft) 97,87 %
02.12.2018 15:24 13,3 C 12,2 C 11,7 C 97 % 998,2 hPa 0,0 l/m 0 min 0 min 11 W/m 9,7 km/h (2 Bft) 97,87 %
02.12.2018 15:26 13,3 C 12,2 C 11,7 C 97 % 998,2 hPa 0,0 l/m 0 min 2 min 14 W/m 16,1 km/h (3 Bft) 97,87 %
02.12.2018 15:28 13,3 C 12,2 C 11,7 C 97 % 998,2 hPa 0,0 l/m 0 min 2 min 20 W/m 25,7 km/h (4 Bft) 97,87 %
02.12.2018 15:30 13,3 C 12,2 C 11,7 C 97 % 998,3 hPa 0,0 l/m 0 min 0 min 28 W/m 12,9 km/h (3 Bft) 97,87 %
02.12.2018 15:32 13,3 C 12,2 C 11,7 C 97 % 998,3 hPa 0,0 l/m 0 min 0 min 27 W/m 12,9 km/h (3 Bft) 97,83 %
02.12.2018 15:34 13,3 C 12,2 C 11,7 C 97 % 998,3 hPa 0,0 l/m 0 min 0 min 24 W/m 16,1 km/h (3 Bft) 97,87 %
02.12.2018 15:36 13,3 C 12,2 C 11,7 C 97 % 998,3 hPa 0,0 l/m 0 min 0 min 18 W/m 22,5 km/h (4 Bft) 95,74 %
02.12.2018 15:38 13,3 C 12,2 C 11,7 C 96 % 998,3 hPa 0,0 l/m 0 min 0 min 11 W/m 9,7 km/h (2 Bft) 97,87 %
02.12.2018 15:40 13,3 C 12,2 C 11,7 C 96 % 998,4 hPa 0,0 l/m 0 min 0 min 8 W/m 9,7 km/h (2 Bft) 98,21 %
02.12.2018 15:42 13,3 C 12,2 C 11,7 C 96 % 998,3 hPa 0,0 l/m 0 min 0 min 7 W/m 9,7 km/h (2 Bft) 97,83 %
02.12.2018 15:44 13,3 C 12,2 C 11,7 C 96 % 998,3 hPa 0,0 l/m 0 min 0 min 5 W/m 9,7 km/h (2 Bft) 97,87 %
02.12.2018 15:46 13,3 C 12,2 C 11,7 C 96 % 998,4 hPa 0,0 l/m 0 min 0 min 5 W/m 19,3 km/h (3 Bft) 97,87 %
02.12.2018 15:48 13,3 C 12,2 C 11,7 C 96 % 998,3 hPa 0,0 l/m 0 min 0 min 5 W/m 22,5 km/h (4 Bft) 97,87 %
02.12.2018 15:50 13,3 C 12,2 C 11,7 C 96 % 998,3 hPa 0,0 l/m 0 min 0 min 12 W/m 12,9 km/h (3 Bft) 97,87 %
02.12.2018 15:52 13,3 C 12,2 C 11,7 C 96 % 998,4 hPa 0,0 l/m 0 min 0 min 27 W/m 22,5 km/h (4 Bft) 97,87 %
02.12.2018 15:54 13,2 C 12,2 C 11,7 C 96 % 998,4 hPa 0,0 l/m 0 min 0 min 24 W/m 12,9 km/h (3 Bft) 97,83 %
02.12.2018 15:56 13,3 C 12,2 C 11,7 C 96 % 998,4 hPa 0,0 l/m 0 min 0 min 13 W/m 12,9 km/h (3 Bft) 97,87 %
02.12.2018 15:58 13,2 C 12,2 C 11,7 C 96 % 998,4 hPa 0,0 l/m 0 min 0 min 11 W/m 16,1 km/h (3 Bft) 100,00 %
02.12.2018 16:00 13,2 C 12,8 C 11,7 C 96 % 998,4 hPa 0,0 l/m 0 min 0 min 10 W/m 19,3 km/h (3 Bft) 100,00 %
02.12.2018 16:02 13,2 C 12,8 C 11,7 C 96 % 998,5 hPa 0,0 l/m 0 min 0 min 4 W/m 16,1 km/h (3 Bft) 97,87 %
02.12.2018 16:04 13,2 C 12,8 C 11,7 C 96 % 998,6 hPa 0,0 l/m 0 min 0 min 0 W/m 12,9 km/h (3 Bft) 93,62 %
02.12.2018 16:06 13,2 C 12,8 C 11,7 C 96 % 998,6 hPa 0,0 l/m 0 min 0 min 0 W/m 9,7 km/h (2 Bft) 100,00 %
02.12.2018 16:08 13,2 C 12,2 C 11,7 C 96 % 998,5 hPa 0,0 l/m 0 min 0 min 0 W/m 12,9 km/h (3 Bft) 100,00 %
02.12.2018 16:10 13,2 C 12,2 C 11,7 C 96 % 998,6 hPa 0,0 l/m 0 min 0 min 4 W/m 19,3 km/h (3 Bft) 100,00 %
02.12.2018 16:12 13,2 C 12,2 C 11,7 C 96 % 998,6 hPa 0,0 l/m 0 min 2 min 0 W/m 16,1 km/h (3 Bft) 97,87 %
02.12.2018 16:14 13,2 C 12,2 C 11,7 C 96 % 998,7 hPa 0,0 l/m 0 min 2 min 0 W/m 25,7 km/h (4 Bft) 100,00 %
02.12.2018 16:16 13,2 C 12,2 C 11,7 C 96 % 998,7 hPa 0,0 l/m 0 min 2 min 0 W/m 12,9 km/h (3 Bft) 100,00 %
02.12.2018 16:18 13,2 C 12,2 C 11,7 C 96 % 998,6 hPa 0,0 l/m 0 min 2 min 0 W/m 9,7 km/h (2 Bft) 100,00 %
02.12.2018 16:20 13,2 C 12,2 C 11,7 C 96 % 998,6 hPa 0,0 l/m 0 min 2 min 0 W/m 19,3 km/h (3 Bft) 97,87 %
02.12.2018 16:22 13,2 C 12,2 C 11,7 C 97 % 998,6 hPa 0,0 l/m 0 min 2 min 0 W/m 19,3 km/h (3 Bft) 100,00 %
02.12.2018 16:24 13,2 C 12,2 C 11,7 C 97 % 998,6 hPa 0,0 l/m 0 min 2 min 0 W/m 6,4 km/h (2 Bft) 100,00 %
02.12.2018 16:26 13,2 C 12,2 C 11,7 C 97 % 998,7 hPa 0,0 l/m 0 min 2 min 0 W/m 12,9 km/h (3 Bft) 100,00 %
02.12.2018 16:28 13,2 C 12,2 C 11,7 C 96 % 998,8 hPa 0,0 l/m 0 min 2 min 0 W/m 16,1 km/h (3 Bft) 100,00 %
02.12.2018 16:30 13,2 C 11,7 C 11,7 C 96 % 998,8 hPa 0,0 l/m 0 min 2 min 0 W/m 9,7 km/h (2 Bft) 100,00 %
02.12.2018 16:32 13,2 C 12,2 C 11,7 C 97 % 998,7 hPa 0,0 l/m 0 min 2 min 0 W/m 12,9 km/h (3 Bft) 97,87 %
02.12.2018 16:34 13,2 C 12,2 C 11,7 C 97 % 998,8 hPa 0,0 l/m 0 min 2 min 0 W/m 12,9 km/h (3 Bft) 100,00 %
02.12.2018 16:36 13,1 C 11,7 C 11,1 C 97 % 998,7 hPa 0,0 l/m 0 min 2 min 0 W/m 6,4 km/h (2 Bft) 100,00 %
02.12.2018 16:38 13,1 C 11,7 C 11,1 C 97 % 998,8 hPa 0,0 l/m 0 min 0 min 0 W/m 6,4 km/h (2 Bft) 100,00 %
02.12.2018 16:40 13,1 C 11,7 C 11,1 C 97 % 998,8 hPa 0,0 l/m 0 min 2 min 0 W/m 6,4 km/h (2 Bft) 100,00 %
02.12.2018 16:42 13,1 C 11,7 C 11,1 C 97 % 998,7 hPa 0,2 l/m 0 min 2 min 0 W/m 9,7 km/h (2 Bft) 97,87 %
02.12.2018 16:44 13,1 C 11,7 C 11,1 C 97 % 998,8 hPa 0,0 l/m 0 min 2 min 0 W/m 3,2 km/h (1 Bft) 100,00 %
02.12.2018 16:46 13,1 C 11,7 C 11,1 C 97 % 998,8 hPa 0,0 l/m 0 min 0 min 0 W/m 9,7 km/h (2 Bft) 100,00 %
02.12.2018 16:48 13,1 C 11,7 C 11,1 C 97 % 998,8 hPa 0,0 l/m 0 min 2 min 0 W/m 6,4 km/h (2 Bft) 97,87 %
02.12.2018 16:50 13,1 C 11,7 C 11,1 C 97 % 998,8 hPa 0,0 l/m 0 min 0 min 0 W/m 12,9 km/h (3 Bft) 97,87 %
02.12.2018 16:52 13,1 C 11,7 C 11,1 C 97 % 998,7 hPa 0,0 l/m 0 min 0 min 0 W/m 9,7 km/h (2 Bft) 95,65 %
02.12.2018 16:54 13,1 C 11,7 C 11,1 C 97 % 998,7 hPa 0,0 l/m 0 min 0 min 0 W/m 12,9 km/h (3 Bft) 95,74 %
02.12.2018 16:56 13,0 C 11,7 C 11,1 C 97 % 998,7 hPa 0,0 l/m 0 min 0 min 0 W/m 9,7 km/h (2 Bft) 95,74 %
02.12.2018 16:58 13,0 C 11,7 C 11,1 C 97 % 998,7 hPa 0,0 l/m 0 min 0 min 0 W/m 16,1 km/h (3 Bft) 97,87 %
02.12.2018 17:00 13,0 C 11,7 C 11,1 C 97 % 998,8 hPa 0,0 l/m 0 min 0 min 0 W/m 9,7 km/h (2 Bft) 95,74 %
02.12.2018 17:02 13,0 C 11,7 C 11,1 C 97 % 998,8 hPa 0,0 l/m 0 min 0 min 0 W/m 16,1 km/h (3 Bft) 95,74 %
02.12.2018 17:04 13,0 C 11,7 C 11,1 C 97 % 998,8 hPa 0,0 l/m 0 min 2 min 0 W/m 12,9 km/h (3 Bft) 97,83 %
02.12.2018 17:06 13,0 C 11,7 C 11,1 C 97 % 998,7 hPa 0,0 l/m 0 min 2 min 0 W/m 16,1 km/h (3 Bft) 95,74 %
02.12.2018 17:08 12,9 C 11,7 C 11,1 C 97 % 998,8 hPa 0,0 l/m 0 min 0 min 0 W/m 9,7 km/h (2 Bft) 97,87 %
02.12.2018 17:10 12,9 C 11,7 C 11,1 C 97 % 998,8 hPa 0,0 l/m 0 min 0 min 0 W/m 16,1 km/h (3 Bft) 95,74 %
02.12.2018 17:12 12,9 C 11,7 C 11,1 C 97 % 998,7 hPa 0,0 l/m 0 min 0 min 0 W/m 9,7 km/h (2 Bft) 93,62 %
02.12.2018 17:14 12,9 C 11,7 C 11,1 C 97 % 998,7 hPa 0,0 l/m 0 min 0 min 0 W/m 16,1 km/h (3 Bft) 91,49 %
02.12.2018 17:16 12,9 C 11,7 C 11,1 C 97 % 998,7 hPa 0,0 l/m 0 min 0 min 0 W/m 16,1 km/h (3 Bft) 95,65 %
02.12.2018 17:18 12,9 C 11,7 C 11,1 C 97 % 998,7 hPa 0,0 l/m 0 min 0 min 0 W/m 16,1 km/h (3 Bft) 95,74 %
02.12.2018 17:20 12,9 C 11,7 C 11,1 C 97 % 998,7 hPa 0,0 l/m 0 min 0 min 0 W/m 9,7 km/h (2 Bft) 95,74 %
02.12.2018 17:22 12,9 C 11,7 C 11,1 C 97 % 998,7 hPa 0,0 l/m 0 min 0 min 0 W/m 9,7 km/h (2 Bft) 95,74 %
02.12.2018 17:24 12,9 C 11,7 C 11,1 C 97 % 998,7 hPa 0,0 l/m 0 min 0 min 0 W/m 19,3 km/h (3 Bft) 93,62 %
02.12.2018 17:26 12,9 C 11,7 C 11,1 C 97 % 998,7 hPa 0,0 l/m 0 min 0 min 0 W/m 16,1 km/h (3 Bft) 95,74 %
02.12.2018 17:28 12,9 C 11,7 C 11,1 C 97 % 998,8 hPa 0,0 l/m 0 min 0 min 0 W/m 9,7 km/h (2 Bft) 95,65 %
02.12.2018 17:30 12,9 C 11,7 C 11,1 C 97 % 998,8 hPa 0,0 l/m 0 min 2 min 0 W/m 12,9 km/h (3 Bft) 95,74 %
02.12.2018 17:32 12,9 C 11,7 C 11,1 C 97 % 998,9 hPa 0,0 l/m 0 min 0 min 0 W/m 6,4 km/h (2 Bft) 97,87 %
02.12.2018 17:34 12,9 C 11,7 C 11,1 C 97 % 998,8 hPa 0,0 l/m 0 min 0 min 0 W/m 19,3 km/h (3 Bft) 97,87 %
02.12.2018 17:36 12,9 C 11,7 C 11,1 C 97 % 998,8 hPa 0,0 l/m 0 min 0 min 0 W/m 12,9 km/h (3 Bft) 95,74 %
02.12.2018 17:38 12,9 C 11,7 C 11,1 C 97 % 998,8 hPa 0,0 l/m 0 min 0 min 0 W/m 12,9 km/h (3 Bft) 97,87 %
02.12.2018 17:40 12,9 C 11,7 C 11,1 C 97 % 998,8 hPa 0,0 l/m 0 min 0 min 0 W/m 12,9 km/h (3 Bft) 97,96 %
02.12.2018 17:42 12,9 C 11,7 C 11,1 C 97 % 998,8 hPa 0,0 l/m 0 min 0 min 0 W/m 16,1 km/h (3 Bft) 97,87 %
02.12.2018 17:44 12,9 C 11,7 C 11,1 C 97 % 998,8 hPa 0,0 l/m 0 min 0 min 0 W/m 12,9 km/h (3 Bft) 89,36 %
02.12.2018 17:46 12,9 C 12,2 C 11,7 C 97 % 998,8 hPa 0,0 l/m 0 min 0 min 0 W/m 16,1 km/h (3 Bft) 95,74 %
02.12.2018 17:48 12,9 C 12,2 C 11,7 C 97 % 998,8 hPa 0,0 l/m 0 min 0 min 0 W/m 16,1 km/h (3 Bft) 95,74 %
02.12.2018 17:50 12,9 C 12,2 C 11,7 C 98 % 998,8 hPa 0,0 l/m 0 min 0 min 0 W/m 6,4 km/h (2 Bft) 97,83 %
02.12.2018 17:52 12,9 C 12,2 C 11,1 C 98 % 998,7 hPa 0,0 l/m 0 min 0 min 0 W/m 12,9 km/h (3 Bft) 97,87 %
02.12.2018 17:54 12,9 C 12,2 C 11,1 C 98 % 998,7 hPa 0,0 l/m 0 min 0 min 0 W/m 22,5 km/h (4 Bft) 97,87 %
02.12.2018 17:56 12,9 C 12,2 C 11,1 C 98 % 998,7 hPa 0,0 l/m 0 min 0 min 0 W/m 9,7 km/h (2 Bft) 97,87 %
02.12.2018 17:58 12,9 C 12,2 C 11,1 C 98 % 998,7 hPa 0,0 l/m 0 min 0 min 0 W/m 16,1 km/h (3 Bft) 95,74 %
02.12.2018 18:00 12,9 C 12,2 C 11,1 C 98 % 998,7 hPa 0,0 l/m 0 min 0 min 0 W/m 16,1 km/h (3 Bft) 95,74 %
02.12.2018 18:02 12,9 C 12,2 C 11,1 C 98 % 998,8 hPa 0,0 l/m 0 min 0 min 0 W/m 9,7 km/h (2 Bft) 97,83 %
02.12.2018 18:04 12,9 C 12,2 C 11,1 C 98 % 998,8 hPa 0,0 l/m 0 min 0 min 0 W/m 6,4 km/h (2 Bft) 97,87 %
02.12.2018 18:08 12,9 C 12,2 C 11,7 C 98 % 998,8 hPa 0,0 l/m 0 min 0 min 0 W/m 19,3 km/h (3 Bft) 100,00 %
02.12.2018 18:10 12,9 C 12,2 C 11,7 C 98 % 998,8 hPa 0,0 l/m 0 min 0 min 0 W/m 9,7 km/h (2 Bft) 93,62 %
02.12.2018 18:12 12,9 C 12,2 C 11,7 C 98 % 998,8 hPa 0,0 l/m 0 min 0 min 0 W/m 12,9 km/h (3 Bft) 100,00 %
02.12.2018 18:14 12,9 C 12,2 C 11,7 C 98 % 998,7 hPa 0,0 l/m 0 min 0 min 0 W/m 9,7 km/h (2 Bft) 97,83 %
02.12.2018 18:16 12,9 C 12,2 C 11,1 C 98 % 998,8 hPa 0,0 l/m 0 min 0 min 0 W/m 6,4 km/h (2 Bft) 97,87 %
02.12.2018 18:18 12,9 C 12,2 C 11,1 C 98 % 998,8 hPa 0,0 l/m 0 min 0 min 0 W/m 6,4 km/h (2 Bft) 97,87 %
02.12.2018 18:20 12,9 C 12,2 C 11,1 C 98 % 998,8 hPa 0,0 l/m 0 min 0 min 0 W/m 9,7 km/h (2 Bft) 97,87 %
02.12.2018 18:22 12,9 C 12,2 C 11,7 C 98 % 998,8 hPa 0,0 l/m 0 min 0 min 0 W/m 19,3 km/h (3 Bft) 95,74 %
02.12.2018 18:24 12,9 C 12,2 C 11,7 C 98 % 998,8 hPa 0,0 l/m 0 min 0 min 0 W/m 9,7 km/h (2 Bft) 97,87 %
02.12.2018 18:26 12,9 C 12,2 C 11,7 C 98 % 998,8 hPa 0,0 l/m 0 min 0 min 0 W/m 9,7 km/h (2 Bft) 97,83 %
02.12.2018 18:28 12,9 C 12,2 C 11,7 C 98 % 998,8 hPa 0,0 l/m 0 min 0 min 0 W/m 9,7 km/h (2 Bft) 93,62 %
02.12.2018 18:30 12,9 C 12,2 C 11,7 C 98 % 998,9 hPa 0,0 l/m 0 min 0 min 0 W/m 9,7 km/h (2 Bft) 97,87 %
02.12.2018 18:32 12,9 C 12,2 C 11,7 C 98 % 998,8 hPa 0,0 l/m 0 min 0 min 0 W/m 9,7 km/h (2 Bft) 97,87 %
02.12.2018 18:34 12,9 C 12,2 C 11,7 C 98 % 999,0 hPa 0,0 l/m 0 min 0 min 0 W/m 16,1 km/h (3 Bft) 97,87 %
02.12.2018 18:36 12,9 C 12,2 C 11,7 C 98 % 998,9 hPa 0,0 l/m 0 min 0 min 0 W/m 22,5 km/h (4 Bft) 97,87 %
02.12.2018 18:38 12,9 C 12,2 C 11,7 C 98 % 999,0 hPa 0,0 l/m 0 min 0 min 0 W/m 9,7 km/h (2 Bft) 97,83 %
02.12.2018 18:40 12,9 C 12,2 C 11,7 C 98 % 999,0 hPa 0,0 l/m 0 min 0 min 0 W/m 16,1 km/h (3 Bft) 97,96 %
02.12.2018 18:42 13,0 C 12,2 C 11,7 C 98 % 999,0 hPa 0,0 l/m 0 min 0 min 0 W/m 9,7 km/h (2 Bft) 95,74 %
02.12.2018 18:44 13,0 C 12,2 C 11,7 C 98 % 999,0 hPa 0,0 l/m 0 min 0 min 0 W/m 16,1 km/h (3 Bft) 97,87 %
02.12.2018 18:46 13,0 C 12,2 C 11,7 C 98 % 998,9 hPa 0,0 l/m 0 min 0 min 0 W/m 16,1 km/h (3 Bft) 97,87 %
02.12.2018 18:48 12,9 C 12,2 C 11,7 C 98 % 999,0 hPa 0,0 l/m 0 min 0 min 0 W/m 19,3 km/h (3 Bft) 97,83 %
02.12.2018 18:50 13,0 C 12,2 C 11,7 C 98 % 999,0 hPa 0,0 l/m 0 min 0 min 0 W/m 16,1 km/h (3 Bft) 97,87 %
02.12.2018 18:52 12,9 C 12,2 C 11,7 C 98 % 999,0 hPa 0,0 l/m 0 min 0 min 0 W/m 16,1 km/h (3 Bft) 93,62 %
02.12.2018 18:54 12,9 C 12,2 C 11,7 C 98 % 999,0 hPa 0,0 l/m 0 min 0 min 0 W/m 9,7 km/h (2 Bft) 97,87 %
02.12.2018 18:56 12,9 C 12,2 C 11,7 C 98 % 999,1 hPa 0,0 l/m 0 min 0 min 0 W/m 16,1 km/h (3 Bft) 97,87 %
02.12.2018 18:58 12,9 C 12,2 C 11,7 C 98 % 999,1 hPa 0,0 l/m 0 min 0 min 0 W/m 22,5 km/h (4 Bft) 97,83 %
02.12.2018 19:00 12,9 C 12,2 C 11,7 C 98 % 999,1 hPa 0,0 l/m 0 min 0 min 0 W/m 19,3 km/h (3 Bft) 97,87 %
02.12.2018 19:02 12,9 C 12,2 C 11,7 C 98 % 999,1 hPa 0,0 l/m 0 min 0 min 0 W/m 12,9 km/h (3 Bft) 93,62 %
02.12.2018 19:04 12,9 C 12,2 C 11,7 C 98 % 999,0 hPa 0,0 l/m 0 min 0 min 0 W/m 12,9 km/h (3 Bft) 97,87 %
02.12.2018 19:06 12,9 C 12,2 C 11,7 C 98 % 999,1 hPa 0,0 l/m 0 min 0 min 0 W/m 9,7 km/h (2 Bft) 95,74 %
02.12.2018 19:08 12,9 C 12,2 C 11,7 C 98 % 999,1 hPa 0,0 l/m 0 min 0 min 0 W/m 9,7 km/h (2 Bft) 97,87 %
02.12.2018 19:10 12,9 C 12,2 C 11,7 C 98 % 999,1 hPa 0,0 l/m 0 min 0 min 0 W/m 9,7 km/h (2 Bft) 100,00 %
02.12.2018 19:12 12,9 C 12,2 C 11,7 C 98 % 999,1 hPa 0,0 l/m 0 min 0 min 0 W/m 9,7 km/h (2 Bft) 100,00 %
02.12.2018 19:14 12,9 C 12,2 C 11,7 C 97 % 999,1 hPa 0,0 l/m 0 min 0 min 0 W/m 16,1 km/h (3 Bft) 100,00 %
02.12.2018 19:16 12,9 C 12,2 C 11,7 C 97 % 999,1 hPa 0,0 l/m 0 min 0 min 0 W/m 12,9 km/h (3 Bft) 100,00 %
02.12.2018 19:18 12,9 C 12,2 C 11,7 C 97 % 999,2 hPa 0,0 l/m 0 min 0 min 0 W/m 9,7 km/h (2 Bft) 95,74 %
02.12.2018 19:20 12,9 C 12,2 C 11,7 C 97 % 999,1 hPa 0,0 l/m 0 min 0 min 0 W/m 12,9 km/h (3 Bft) 97,87 %
02.12.2018 19:22 12,9 C 12,2 C 11,7 C 97 % 999,2 hPa 0,0 l/m 0 min 0 min 0 W/m 16,1 km/h (3 Bft) 97,87 %
02.12.2018 19:24 12,9 C 12,2 C 11,7 C 97 % 999,2 hPa 0,0 l/m 0 min 0 min 0 W/m 9,7 km/h (2 Bft) 97,87 %
02.12.2018 19:26 12,9 C 12,2 C 11,7 C 97 % 999,3 hPa 0,0 l/m 0 min 0 min 0 W/m 12,9 km/h (3 Bft) 95,65 %
02.12.2018 19:28 12,9 C 12,2 C 11,7 C 97 % 999,3 hPa 0,0 l/m 0 min 0 min 0 W/m 16,1 km/h (3 Bft) 95,74 %
02.12.2018 19:30 12,9 C 12,2 C 11,7 C 97 % 999,3 hPa 0,0 l/m 0 min 0 min 0 W/m 22,5 km/h (4 Bft) 97,87 %
02.12.2018 19:32 12,9 C 12,2 C 11,7 C 97 % 999,3 hPa 0,0 l/m 0 min 0 min 0 W/m 9,7 km/h (2 Bft) 97,87 %
02.12.2018 19:34 12,9 C 12,2 C 11,7 C 97 % 999,3 hPa 0,0 l/m 0 min 0 min 0 W/m 9,7 km/h (2 Bft) 95,74 %
02.12.2018 19:36 12,9 C 12,2 C 11,7 C 97 % 999,3 hPa 0,0 l/m 0 min 0 min 0 W/m 9,7 km/h (2 Bft) 98,28 %
02.12.2018 19:38 12,9 C 12,2 C 11,7 C 97 % 999,3 hPa 0,0 l/m 0 min 0 min 0 W/m 9,7 km/h (2 Bft) 97,14 %
02.12.2018 19:40 12,9 C 12,2 C 11,7 C 97 % 999,4 hPa 0,0 l/m 0 min 0 min 0 W/m 9,7 km/h (2 Bft) 98,15 %
02.12.2018 19:42 12,9 C 12,2 C 11,7 C 97 % 999,4 hPa 0,0 l/m 0 min 0 min 0 W/m 16,1 km/h (3 Bft) 97,87 %
02.12.2018 19:44 12,9 C 12,2 C 11,7 C 97 % 999,5 hPa 0,0 l/m 0 min 0 min 0 W/m 16,1 km/h (3 Bft) 97,87 %
02.12.2018 19:46 12,9 C 12,2 C 11,7 C 97 % 999,4 hPa 0,0 l/m 0 min 0 min 0 W/m 22,5 km/h (4 Bft) 95,74 %
02.12.2018 19:48 12,9 C 12,2 C 11,7 C 97 % 999,4 hPa 0,0 l/m 0 min 0 min 0 W/m 9,7 km/h (2 Bft) 95,65 %
02.12.2018 19:50 12,9 C 12,2 C 11,7 C 97 % 999,4 hPa 0,0 l/m 0 min 0 min 0 W/m 19,3 km/h (3 Bft) 91,49 %
02.12.2018 19:52 12,9 C 12,2 C 11,7 C 97 % 999,4 hPa 0,0 l/m 0 min 0 min 0 W/m 9,7 km/h (2 Bft) 96,00 %
02.12.2018 19:54 12,9 C 12,2 C 11,7 C 97 % 999,4 hPa 0,0 l/m 0 min 0 min 0 W/m 12,9 km/h (3 Bft) 95,74 %
02.12.2018 19:56 12,9 C 12,2 C 11,7 C 97 % 999,5 hPa 0,0 l/m 0 min 0 min 0 W/m 9,7 km/h (2 Bft) 97,87 %
02.12.2018 19:58 12,9 C 12,2 C 11,7 C 97 % 999,5 hPa 0,0 l/m 0 min 0 min 0 W/m 12,9 km/h (3 Bft) 93,62 %
02.12.2018 20:00 12,9 C 12,2 C 11,7 C 97 % 999,4 hPa 0,0 l/m 0 min 0 min 0 W/m 19,3 km/h (3 Bft) 95,65 %
02.12.2018 20:02 12,9 C 12,2 C 11,7 C 96 % 999,4 hPa 0,0 l/m 0 min 0 min 0 W/m 19,3 km/h (3 Bft) 97,87 %
02.12.2018 20:04 12,9 C 12,2 C 11,7 C 96 % 999,4 hPa 0,0 l/m 0 min 0 min 0 W/m 12,9 km/h (3 Bft) 95,74 %
02.12.2018 20:06 12,9 C 12,2 C 11,7 C 96 % 999,4 hPa 0,0 l/m 0 min 0 min 0 W/m 9,7 km/h (2 Bft) 95,74 %
02.12.2018 20:08 12,9 C 12,2 C 11,7 C 96 % 999,4 hPa 0,0 l/m 0 min 0 min 0 W/m 9,7 km/h (2 Bft) 95,83 %
02.12.2018 20:10 12,9 C 12,2 C 11,7 C 96 % 999,5 hPa 0,0 l/m 0 min 0 min 0 W/m 16,1 km/h (3 Bft) 100,00 %
02.12.2018 20:12 12,9 C 12,2 C 11,7 C 96 % 999,5 hPa 0,0 l/m 0 min 0 min 0 W/m 6,4 km/h (2 Bft) 97,14 %
02.12.2018 20:14 12,9 C 12,2 C 11,7 C 96 % 999,5 hPa 0,0 l/m 0 min 0 min 0 W/m 16,1 km/h (3 Bft) 98,31 %
02.12.2018 20:16 12,9 C 12,2 C 11,7 C 96 % 999,6 hPa 0,0 l/m 0 min 0 min 0 W/m 9,7 km/h (2 Bft) 95,74 %
02.12.2018 20:18 12,9 C 12,2 C 11,7 C 96 % 999,4 hPa 0,0 l/m 0 min 0 min 0 W/m 19,3 km/h (3 Bft) 95,74 %
02.12.2018 20:20 12,9 C 12,2 C 11,7 C 96 % 999,4 hPa 0,0 l/m 0 min 0 min 0 W/m 9,7 km/h (2 Bft) 97,83 %
02.12.2018 20:22 12,9 C 12,2 C 11,7 C 95 % 999,4 hPa 0,0 l/m 0 min 0 min 0 W/m 9,7 km/h (2 Bft) 97,87 %
02.12.2018 20:24 12,9 C 12,2 C 11,7 C 95 % 999,5 hPa 0,0 l/m 0 min 0 min 0 W/m 9,7 km/h (2 Bft) 94,29 %
02.12.2018 20:26 12,9 C 12,2 C 11,7 C 95 % 999,5 hPa 0,0 l/m 0 min 0 min 0 W/m 9,7 km/h (2 Bft) 94,92 %
02.12.2018 20:28 12,9 C 12,2 C 11,7 C 95 % 999,4 hPa 0,0 l/m 0 min 0 min 0 W/m 9,7 km/h (2 Bft) 95,74 %
02.12.2018 20:30 12,9 C 12,2 C 11,7 C 95 % 999,4 hPa 0,0 l/m 0 min 0 min 0 W/m 9,7 km/h (2 Bft) 97,87 %
02.12.2018 20:32 12,9 C 12,2 C 11,7 C 95 % 999,5 hPa 0,0 l/m 0 min 0 min 0 W/m 16,1 km/h (3 Bft) 97,83 %
02.12.2018 20:34 12,9 C 12,2 C 11,7 C 95 % 999,4 hPa 0,0 l/m 0 min 0 min 0 W/m 9,7 km/h (2 Bft) 97,22 %
02.12.2018 20:36 12,9 C 12,2 C 11,7 C 95 % 999,3 hPa 0,0 l/m 0 min 0 min 0 W/m 9,7 km/h (2 Bft) 96,55 %
02.12.2018 20:38 12,9 C 12,2 C 11,7 C 95 % 999,4 hPa 0,0 l/m 0 min 0 min 0 W/m 12,9 km/h (3 Bft) 95,74 %
02.12.2018 20:40 12,9 C 12,2 C 11,7 C 95 % 999,2 hPa 0,0 l/m 0 min 0 min 0 W/m 9,7 km/h (2 Bft) 97,14 %
02.12.2018 20:42 12,9 C 12,2 C 11,7 C 95 % 999,3 hPa 0,0 l/m 0 min 0 min 0 W/m 6,4 km/h (2 Bft) 97,87 %
02.12.2018 20:44 12,9 C 12,2 C 11,7 C 95 % 999,4 hPa 0,0 l/m 0 min 0 min 0 W/m 9,7 km/h (2 Bft) 97,87 %
02.12.2018 20:46 12,9 C 11,7 C 11,1 C 95 % 999,3 hPa 0,0 l/m 0 min 0 min 0 W/m 9,7 km/h (2 Bft) 97,87 %
02.12.2018 20:48 12,9 C 11,7 C 11,7 C 95 % 999,4 hPa 0,0 l/m 0 min 0 min 0 W/m 22,5 km/h (4 Bft) 97,83 %
02.12.2018 20:50 12,9 C 11,7 C 11,1 C 95 % 999,3 hPa 0,0 l/m 0 min 0 min 0 W/m 12,9 km/h (3 Bft) 97,87 %
02.12.2018 20:52 12,9 C 11,7 C 11,1 C 95 % 999,4 hPa 0,0 l/m 0 min 0 min 0 W/m 12,9 km/h (3 Bft) 95,74 %
02.12.2018 20:54 12,9 C 11,7 C 11,1 C 95 % 999,3 hPa 0,0 l/m 0 min 0 min 0 W/m 6,4 km/h (2 Bft) 97,87 %
02.12.2018 20:56 12,9 C 11,7 C 11,1 C 95 % 999,3 hPa 0,0 l/m 0 min 0 min 0 W/m 16,1 km/h (3 Bft) 97,87 %
02.12.2018 20:58 12,9 C 11,7 C 11,1 C 95 % 999,3 hPa 0,0 l/m 0 min 0 min 0 W/m 6,4 km/h (2 Bft) 97,87 %
02.12.2018 21:00 12,9 C 11,7 C 11,1 C 95 % 999,3 hPa 0,0 l/m 0 min 0 min 0 W/m 12,9 km/h (3 Bft) 97,83 %
02.12.2018 21:02 12,9 C 11,7 C 11,1 C 95 % 999,3 hPa 0,0 l/m 0 min 0 min 0 W/m 12,9 km/h (3 Bft) 97,87 %
02.12.2018 21:04 12,9 C 11,7 C 11,7 C 95 % 999,3 hPa 0,0 l/m 0 min 0 min 0 W/m 9,7 km/h (2 Bft) 97,87 %
02.12.2018 21:06 12,9 C 11,7 C 11,7 C 95 % 999,4 hPa 0,0 l/m 0 min 0 min 0 W/m 9,7 km/h (2 Bft) 100,00 %
02.12.2018 21:08 12,9 C 11,7 C 11,7 C 95 % 999,3 hPa 0,0 l/m 0 min 0 min 0 W/m 12,9 km/h (3 Bft) 100,00 %
02.12.2018 21:10 12,9 C 11,7 C 11,1 C 95 % 999,3 hPa 0,0 l/m 0 min 2 min 0 W/m 6,4 km/h (2 Bft) 100,00 %
02.12.2018 21:12 12,9 C 11,7 C 11,1 C 95 % 999,3 hPa 0,0 l/m 0 min 2 min 0 W/m 12,9 km/h (3 Bft) 97,87 %
02.12.2018 21:14 12,9 C 11,7 C 11,1 C 95 % 999,3 hPa 0,0 l/m 0 min 2 min 0 W/m 9,7 km/h (2 Bft) 100,00 %
02.12.2018 21:16 12,9 C 11,7 C 11,1 C 95 % 999,3 hPa 0,0 l/m 0 min 2 min 0 W/m 6,4 km/h (2 Bft) 100,00 %
02.12.2018 21:18 12,9 C 11,7 C 11,1 C 95 % 999,3 hPa 0,0 l/m 0 min 2 min 0 W/m 6,4 km/h (2 Bft) 100,00 %
02.12.2018 21:20 12,9 C 11,7 C 11,1 C 95 % 999,3 hPa 0,0 l/m 0 min 2 min 0 W/m 3,2 km/h (1 Bft) 100,00 %
02.12.2018 21:22 12,9 C 11,7 C 11,1 C 95 % 999,3 hPa 0,2 l/m 0 min 2 min 0 W/m 3,2 km/h (1 Bft) 100,00 %
02.12.2018 21:24 12,9 C 11,7 C 11,1 C 95 % 999,3 hPa 0,0 l/m 0 min 2 min 0 W/m 9,7 km/h (2 Bft) 97,87 %
02.12.2018 21:26 12,8 C 11,1 C 11,1 C 95 % 999,4 hPa 0,0 l/m 0 min 2 min 0 W/m 12,9 km/h (3 Bft) 100,00 %
02.12.2018 21:28 12,8 C 11,7 C 11,1 C 95 % 999,3 hPa 0,0 l/m 0 min 2 min 0 W/m 6,4 km/h (2 Bft) 100,00 %
02.12.2018 21:30 12,8 C 11,7 C 11,1 C 95 % 999,3 hPa 0,0 l/m 0 min 2 min 0 W/m 12,9 km/h (3 Bft) 100,00 %
02.12.2018 21:32 12,8 C 11,7 C 11,1 C 95 % 999,3 hPa 0,0 l/m 0 min 2 min 0 W/m 22,5 km/h (4 Bft) 100,00 %
02.12.2018 21:34 12,8 C 11,7 C 11,1 C 95 % 999,3 hPa 0,0 l/m 0 min 0 min 0 W/m 12,9 km/h (3 Bft) 95,65 %
02.12.2018 21:36 12,8 C 11,7 C 11,1 C 95 % 999,3 hPa 0,0 l/m 0 min 0 min 0 W/m 9,7 km/h (2 Bft) 95,74 %
02.12.2018 21:38 12,8 C 11,7 C 11,1 C 95 % 999,3 hPa 0,0 l/m 0 min 0 min 0 W/m 9,7 km/h (2 Bft) 95,74 %
02.12.2018 21:40 12,8 C 11,7 C 11,1 C 96 % 999,3 hPa 0,0 l/m 0 min 0 min 0 W/m 9,7 km/h (2 Bft) 97,87 %
02.12.2018 21:42 12,7 C 11,7 C 11,1 C 96 % 999,2 hPa 0,0 l/m 0 min 0 min 0 W/m 9,7 km/h (2 Bft) 97,87 %
02.12.2018 21:44 12,7 C 11,7 C 11,1 C 96 % 999,3 hPa 0,0 l/m 0 min 0 min 0 W/m 9,7 km/h (2 Bft) 97,87 %
02.12.2018 21:46 12,7 C 11,7 C 11,1 C 96 % 999,1 hPa 0,0 l/m 0 min 0 min 0 W/m 9,7 km/h (2 Bft) 95,65 %
02.12.2018 21:48 12,7 C 11,7 C 11,1 C 96 % 999,2 hPa 0,0 l/m 0 min 0 min 0 W/m 6,4 km/h (2 Bft) 97,87 %
02.12.2018 21:50 12,7 C 11,7 C 11,1 C 96 % 999,2 hPa 0,0 l/m 0 min 0 min 0 W/m 12,9 km/h (3 Bft) 95,74 %
02.12.2018 21:52 12,7 C 11,7 C 11,1 C 96 % 999,1 hPa 0,0 l/m 0 min 0 min 0 W/m 9,7 km/h (2 Bft) 97,87 %
02.12.2018 21:54 12,7 C 11,7 C 11,1 C 96 % 999,1 hPa 0,0 l/m 0 min 0 min 0 W/m 6,4 km/h (2 Bft) 97,87 %
02.12.2018 21:56 12,7 C 11,7 C 11,1 C 96 % 999,1 hPa 0,0 l/m 0 min 0 min 0 W/m 9,7 km/h (2 Bft) 97,83 %
02.12.2018 21:58 12,7 C 11,7 C 11,1 C 96 % 999,1 hPa 0,0 l/m 0 min 0 min 0 W/m 9,7 km/h (2 Bft) 100,00 %
02.12.2018 22:00 12,7 C 11,7 C 11,1 C 96 % 999,0 hPa 0,0 l/m 0 min 0 min 0 W/m 9,7 km/h (2 Bft) 95,74 %
02.12.2018 22:02 12,7 C 11,7 C 11,1 C 96 % 999,1 hPa 0,0 l/m 0 min 0 min 0 W/m 6,4 km/h (2 Bft) 95,74 %
02.12.2018 22:04 12,7 C 11,7 C 11,1 C 96 % 999,0 hPa 0,0 l/m 0 min 0 min 0 W/m 12,9 km/h (3 Bft) 95,74 %
02.12.2018 22:06 12,7 C 11,7 C 11,1 C 96 % 999,0 hPa 0,0 l/m 0 min 0 min 0 W/m 9,7 km/h (2 Bft) 95,74 %
02.12.2018 22:08 12,7 C 11,7 C 11,1 C 96 % 999,0 hPa 0,0 l/m 0 min 0 min 0 W/m 9,7 km/h (2 Bft) 93,62 %
02.12.2018 22:10 12,7 C 11,7 C 11,1 C 96 % 999,0 hPa 0,0 l/m 0 min 0 min 0 W/m 9,7 km/h (2 Bft) 97,37 %
02.12.2018 22:12 12,7 C 11,7 C 11,1 C 96 % 999,0 hPa 0,0 l/m 0 min 0 min 0 W/m 9,7 km/h (2 Bft) 93,62 %
02.12.2018 22:14 12,7 C 11,7 C 11,1 C 96 % 999,0 hPa 0,0 l/m 0 min 0 min 0 W/m 9,7 km/h (2 Bft) 95,74 %
02.12.2018 22:16 12,7 C 11,7 C 11,1 C 96 % 999,0 hPa 0,0 l/m 0 min 0 min 0 W/m 9,7 km/h (2 Bft) 91,49 %
02.12.2018 22:18 12,7 C 11,7 C 11,1 C 96 % 999,0 hPa 0,0 l/m 0 min 0 min 0 W/m 6,4 km/h (2 Bft) 91,49 %
02.12.2018 22:20 12,7 C 11,7 C 11,1 C 96 % 999,0 hPa 0,0 l/m 0 min 0 min 0 W/m 12,9 km/h (3 Bft) 95,74 %
02.12.2018 22:22 12,7 C 11,7 C 11,1 C 97 % 999,0 hPa 0,0 l/m 0 min 0 min 0 W/m 12,9 km/h (3 Bft) 95,65 %
02.12.2018 22:24 12,6 C 11,7 C 11,1 C 97 % 999,0 hPa 0,0 l/m 0 min 0 min 0 W/m 16,1 km/h (3 Bft) 96,00 %
02.12.2018 22:26 12,6 C 11,7 C 11,1 C 97 % 999,0 hPa 0,0 l/m 0 min 0 min 0 W/m 6,4 km/h (2 Bft) 97,87 %
02.12.2018 22:28 12,6 C 11,7 C 11,1 C 97 % 998,9 hPa 0,0 l/m 0 min 0 min 0 W/m 6,4 km/h (2 Bft) 93,62 %
02.12.2018 22:30 12,6 C 11,7 C 11,1 C 97 % 998,9 hPa 0,0 l/m 0 min 0 min 0 W/m 6,4 km/h (2 Bft) 95,74 %
02.12.2018 22:32 12,7 C 11,7 C 11,1 C 97 % 998,9 hPa 0,0 l/m 0 min 0 min 0 W/m 12,9 km/h (3 Bft) 95,65 %
02.12.2018 22:34 12,7 C 11,7 C 11,1 C 97 % 999,0 hPa 0,0 l/m 0 min 0 min 0 W/m 12,9 km/h (3 Bft) 97,87 %
02.12.2018 22:36 12,7 C 11,7 C 11,1 C 97 % 998,9 hPa 0,0 l/m 0 min 2 min 0 W/m 9,7 km/h (2 Bft) 97,87 %
02.12.2018 22:38 12,7 C 11,7 C 11,1 C 97 % 998,9 hPa 0,0 l/m 0 min 0 min 0 W/m 12,9 km/h (3 Bft) 97,87 %
02.12.2018 22:40 12,7 C 11,7 C 11,1 C 97 % 998,9 hPa 0,0 l/m 0 min 0 min 0 W/m 16,1 km/h (3 Bft) 97,87 %
02.12.2018 22:42 12,7 C 11,7 C 11,1 C 97 % 998,8 hPa 0,0 l/m 0 min 0 min 0 W/m 12,9 km/h (3 Bft) 95,74 %
02.12.2018 22:44 12,7 C 11,7 C 11,1 C 97 % 998,8 hPa 0,0 l/m 0 min 0 min 0 W/m 9,7 km/h (2 Bft) 97,83 %
02.12.2018 22:46 12,7 C 11,7 C 11,1 C 97 % 998,8 hPa 0,0 l/m 0 min 0 min 0 W/m 6,4 km/h (2 Bft) 97,87 %
02.12.2018 22:48 12,7 C 11,7 C 11,1 C 97 % 998,8 hPa 0,0 l/m 0 min 0 min 0 W/m 16,1 km/h (3 Bft) 100,00 %
02.12.2018 22:50 12,7 C 11,7 C 11,1 C 97 % 998,8 hPa 0,0 l/m 0 min 0 min 0 W/m 12,9 km/h (3 Bft) 97,87 %
02.12.2018 22:52 12,7 C 11,7 C 11,1 C 97 % 998,8 hPa 0,0 l/m 0 min 0 min 0 W/m 12,9 km/h (3 Bft) 93,62 %
02.12.2018 22:54 12,7 C 11,7 C 11,1 C 97 % 998,8 hPa 0,0 l/m 0 min 0 min 0 W/m 9,7 km/h (2 Bft) 100,00 %
02.12.2018 22:56 12,7 C 11,7 C 11,7 C 97 % 998,9 hPa 0,0 l/m 0 min 0 min 0 W/m 16,1 km/h (3 Bft) 100,00 %
02.12.2018 22:58 12,7 C 11,7 C 11,7 C 97 % 998,9 hPa 0,0 l/m 0 min 2 min 0 W/m 6,4 km/h (2 Bft) 100,00 %
02.12.2018 23:00 12,7 C 11,7 C 11,1 C 97 % 998,8 hPa 0,0 l/m 0 min 2 min 0 W/m 12,9 km/h (3 Bft) 97,87 %
02.12.2018 23:02 12,8 C 11,7 C 11,1 C 97 % 998,9 hPa 0,0 l/m 0 min 2 min 0 W/m 12,9 km/h (3 Bft) 97,87 %
02.12.2018 23:04 12,8 C 11,7 C 11,1 C 97 % 998,8 hPa 0,0 l/m 0 min 2 min 0 W/m 9,7 km/h (2 Bft) 100,00 %
02.12.2018 23:06 12,8 C 11,7 C 11,1 C 97 % 998,8 hPa 0,0 l/m 0 min 2 min 0 W/m 9,7 km/h (2 Bft) 100,00 %
02.12.2018 23:08 12,8 C 11,7 C 11,1 C 97 % 998,7 hPa 0,0 l/m 0 min 2 min 0 W/m 9,7 km/h (2 Bft) 100,00 %
02.12.2018 23:10 12,8 C 11,7 C 11,1 C 97 % 998,8 hPa 0,0 l/m 0 min 0 min 0 W/m 22,5 km/h (4 Bft) 100,00 %
02.12.2018 23:12 12,8 C 11,7 C 11,1 C 97 % 998,7 hPa 0,0 l/m 0 min 2 min 0 W/m 12,9 km/h (3 Bft) 95,74 %
02.12.2018 23:14 12,8 C 11,7 C 11,1 C 97 % 998,7 hPa 0,2 l/m 0 min 2 min 0 W/m 9,7 km/h (2 Bft) 100,00 %
02.12.2018 23:16 12,8 C 11,7 C 11,1 C 97 % 998,7 hPa 0,0 l/m 0 min 2 min 0 W/m 6,4 km/h (2 Bft) 95,74 %
02.12.2018 23:18 12,8 C 11,7 C 11,1 C 97 % 998,7 hPa 0,0 l/m 0 min 2 min 0 W/m 6,4 km/h (2 Bft) 97,83 %
02.12.2018 23:20 12,8 C 11,7 C 11,1 C 97 % 998,6 hPa 0,0 l/m 0 min 2 min 0 W/m 9,7 km/h (2 Bft) 97,87 %
02.12.2018 23:22 12,8 C 11,7 C 11,1 C 97 % 998,7 hPa 0,0 l/m 0 min 2 min 0 W/m 12,9 km/h (3 Bft) 97,87 %
02.12.2018 23:24 12,8 C 11,7 C 11,1 C 97 % 998,7 hPa 0,0 l/m 0 min 2 min 0 W/m 9,7 km/h (2 Bft) 97,87 %
02.12.2018 23:26 12,8 C 11,7 C 11,1 C 97 % 998,6 hPa 0,0 l/m 0 min 2 min 0 W/m 9,7 km/h (2 Bft) 95,74 %
02.12.2018 23:28 12,8 C 11,7 C 11,1 C 97 % 998,7 hPa 0,0 l/m 0 min 2 min 0 W/m 16,1 km/h (3 Bft) 97,87 %
02.12.2018 23:30 12,8 C 11,7 C 11,1 C 97 % 998,7 hPa 0,0 l/m 0 min 2 min 0 W/m 16,1 km/h (3 Bft) 97,83 %
02.12.2018 23:32 12,8 C 11,7 C 11,1 C 97 % 998,7 hPa 0,0 l/m 0 min 2 min 0 W/m 19,3 km/h (3 Bft) 97,87 %
02.12.2018 23:34 12,8 C 11,7 C 11,1 C 97 % 998,7 hPa 0,0 l/m 0 min 2 min 0 W/m 12,9 km/h (3 Bft) 97,87 %
02.12.2018 23:36 12,8 C 11,7 C 11,1 C 97 % 998,6 hPa 0,0 l/m 0 min 2 min 0 W/m 16,1 km/h (3 Bft) 97,87 %
02.12.2018 23:38 12,8 C 11,7 C 11,1 C 97 % 998,6 hPa 0,0 l/m 0 min 2 min 0 W/m 9,7 km/h (2 Bft) 97,87 %
02.12.2018 23:40 12,8 C 11,7 C 11,1 C 97 % 998,6 hPa 0,0 l/m 0 min 2 min 0 W/m 19,3 km/h (3 Bft) 97,96 %
02.12.2018 23:42 12,8 C 11,7 C 11,1 C 97 % 998,6 hPa 0,0 l/m 0 min 2 min 0 W/m 12,9 km/h (3 Bft) 95,74 %
02.12.2018 23:44 12,8 C 11,7 C 11,1 C 97 % 998,6 hPa 0,0 l/m 0 min 2 min 0 W/m 6,4 km/h (2 Bft) 95,74 %
02.12.2018 23:46 12,8 C 11,7 C 11,1 C 97 % 998,7 hPa 0,0 l/m 0 min 2 min 0 W/m 12,9 km/h (3 Bft) 97,87 %
02.12.2018 23:48 12,8 C 11,7 C 11,1 C 97 % 998,8 hPa 0,0 l/m 0 min 2 min 0 W/m 9,7 km/h (2 Bft) 97,87 %
02.12.2018 23:50 12,8 C 11,7 C 11,1 C 97 % 998,7 hPa 0,0 l/m 0 min 0 min 0 W/m 16,1 km/h (3 Bft) 97,87 %
02.12.2018 23:52 12,8 C 11,7 C 11,1 C 97 % 998,7 hPa 0,0 l/m 0 min 0 min 0 W/m 9,7 km/h (2 Bft) 95,65 %
02.12.2018 23:54 12,8 C 11,7 C 11,1 C 97 % 998,6 hPa 0,0 l/m 0 min 0 min 0 W/m 12,9 km/h (3 Bft) 97,87 %
02.12.2018 23:56 12,8 C 11,7 C 11,1 C 97 % 998,7 hPa 0,0 l/m 0 min 0 min 0 W/m 6,4 km/h (2 Bft) 97,87 %
02.12.2018 23:58 12,8 C 11,7 C 11,1 C 97 % 998,6 hPa 0,0 l/m 0 min 2 min 0 W/m 12,9 km/h (3 Bft) 97,87 %
_ Min-Zeit 06:02 03:40 04:16 00:40 09:18 - - - - 16:44 17:44
Minimum _ 8,6 C 7,8 C 7,2 C 89 % 996,6 hPa - - - - 3,2 km/h (1 Bft) 89,36 %
_ Max-Zeit 13:52 13:08 13:34 11:02 00:00 05:52 00:00 06:08 13:14 11:26 00:12
Maximum _ 13,4 C 12,8 C 12,2 C 100 % 1002,9 hPa 0,4 l/m 0 min 4 min 129 W/m 35,4 km/h
S-SO (5 Bft)
100,00 %
Durchschnitt _ 11,3 C 10,5 C 9,9 C 96 % 998,7 hPa #13,4 l/m #0 min. #9:26 h 35 W/m 14,8 km/h (3 Bft) 97,47 %
© 2018 W. Hausmann